Darstellungsparameter: Aktuell verwendete Einstellungen:
Skalierung der Graphiken ... ?
xyx+y,   Skalierungsfaktor:      Skalierung: Modus: x, Faktor: 1
Darstellungszeitraum ... ?
Vom - - bis: - -   Zeitraum: 09.04.2018 - 15.04.2018
Min/Max/Avg-Anzeige ... ?
Zeige MMA aktuell
Zeige MMA Monat
Zeige MMA alles
Zeige --A aktuell
Zeige --A Monat
Zeige --A alles
Keine MMA-Anzeige
MMA:
Keine MMA-Graphiken
MMA-Basis: 09.04.2018 - 15.04.2018
Quicknavigation für Darstellung... ?
Tage:      1T, 2T, 3T, 5T -1T -2T -3T -5T +1T +2T +3T +5T
Wochen: 1W, 2W, 3W -1W -2W -3W +1W +2W +3W
Monate: 1M, 3M, 6M -1M -3M -6M +1M +3M +6M
Jahre:    1J, 3J, 5J, 10J -1J -3J -5J -10J +1J +3J +5J +10J
Nutze für die Darstellung ... ?
Originaldaten oder Mittelwerte auf ...
Stundenbasis Tagesbasis Wochenbasis
Monatsbasis Jahresbasis      Datenbasis: Original-Daten
Darstellen als:
Statistik (Auto) Statistik J:M      Darstellung:
Zur Graphik,    zurück zur Übersicht aller Sensoren.
 
Tabellarische Datenbersicht: ?
 
Sensor: Nr:Datum:Temp:Feuchte:Taupunkt:
Aussen-T/F 1 09-04-2018 00:00:00 11.6 C 78 % 7.9 C
2 09-04-2018 00:05:00 11.7 C 78 % 8 C
3 09-04-2018 00:10:00 11.6 C 78 % 7.9 C
4 09-04-2018 00:15:00 11.4 C 78 % 7.71 C
5 09-04-2018 00:20:00 11.3 C 79 % 7.8 C
6 09-04-2018 00:25:00 11.1 C 79 % 7.6 C
7 09-04-2018 00:30:00 11 C 80 % 7.69 C
8 09-04-2018 00:35:00 10.9 C 80 % 7.59 C
9 09-04-2018 00:40:00 10.8 C 81 % 7.67 C
10 09-04-2018 00:45:00 10.7 C 81 % 7.58 C
11 09-04-2018 00:50:00 10.6 C 81 % 7.48 C
12 09-04-2018 00:55:00 10.4 C 82 % 7.46 C
13 09-04-2018 01:00:00 10.4 C 82 % 7.46 C
14 09-04-2018 01:05:00 10.2 C 82 % 7.27 C
15 09-04-2018 01:10:00 10.2 C 83 % 7.45 C
16 09-04-2018 01:15:00 10.1 C 83 % 7.35 C
17 09-04-2018 01:20:00 9.9 C 84 % 7.33 C
18 09-04-2018 01:25:00 9.8 C 85 % 7.4 C
19 09-04-2018 01:30:00 9.9 C 85 % 7.5 C
20 09-04-2018 01:35:00 9.9 C 85 % 7.5 C
21 09-04-2018 01:40:00 9.8 C 84 % 7.23 C
22 09-04-2018 01:45:00 9.8 C 85 % 7.4 C
23 09-04-2018 01:50:00 9.8 C 85 % 7.4 C
24 09-04-2018 01:55:00 9.8 C 85 % 7.4 C
25 09-04-2018 02:00:00 9.9 C 85 % 7.5 C
Sensor: Nr:Datum:Temp:Feuchte:Taupunkt:
Aussen-T/F 26 09-04-2018 02:05:00 9.8 C 85 % 7.4 C
27 09-04-2018 02:10:00 9.7 C 84 % 7.13 C
28 09-04-2018 02:15:00 9.5 C 84 % 6.94 C
29 09-04-2018 02:20:00 9.3 C 85 % 6.91 C
30 09-04-2018 02:25:00 9.2 C 86 % 6.98 C
31 09-04-2018 02:30:00 9.1 C 87 % 7.05 C
32 09-04-2018 02:35:00 9.1 C 87 % 7.05 C
33 09-04-2018 02:40:00 8.9 C 86 % 6.69 C
34 09-04-2018 02:45:00 8.8 C 87 % 6.76 C
35 09-04-2018 02:50:00 8.7 C 88 % 6.83 C
36 09-04-2018 02:55:00 8.6 C 88 % 6.73 C
37 09-04-2018 03:00:00 8.4 C 88 % 6.53 C
38 09-04-2018 03:05:00 8.4 C 89 % 6.7 C
39 09-04-2018 03:10:00 8.4 C 89 % 6.7 C
40 09-04-2018 03:15:00 8.6 C 90 % 7.06 C
41 09-04-2018 03:20:00 8.7 C 90 % 7.15 C
42 09-04-2018 03:25:00 8.8 C 89 % 7.09 C
43 09-04-2018 03:30:00 8.8 C 88 % 6.93 C
44 09-04-2018 03:35:00 8.6 C 88 % 6.73 C
45 09-04-2018 03:40:00 8.4 C 88 % 6.53 C
46 09-04-2018 03:45:00 8.3 C 88 % 6.43 C
47 09-04-2018 03:50:00 8.2 C 89 % 6.5 C
48 09-04-2018 03:55:00 8.1 C 89 % 6.4 C
49 09-04-2018 04:00:00 8 C 89 % 6.3 C
50 09-04-2018 04:05:00 7.8 C 89 % 6.1 C
Sensor: Nr:Datum:Temp:Feuchte:Taupunkt:
Aussen-T/F 51 09-04-2018 04:10:00 7.8 C 90 % 6.27 C
52 09-04-2018 04:15:00 7.7 C 90 % 6.17 C
53 09-04-2018 04:20:00 7.7 C 91 % 6.33 C
54 09-04-2018 04:25:00 7.7 C 91 % 6.33 C
55 09-04-2018 04:30:00 7.6 C 91 % 6.23 C
56 09-04-2018 04:35:00 7.6 C 91 % 6.23 C
57 09-04-2018 04:40:00 7.6 C 90 % 6.07 C
58 09-04-2018 04:45:00 7.4 C 91 % 6.03 C
59 09-04-2018 04:50:00 7.4 C 91 % 6.03 C
60 09-04-2018 04:55:00 7.3 C 91 % 5.93 C
61 09-04-2018 05:00:00 7.3 C 92 % 6.09 C
62 09-04-2018 05:05:00 7.3 C 92 % 6.09 C
63 09-04-2018 05:10:00 7.4 C 92 % 6.19 C
64 09-04-2018 05:15:00 7.4 C 92 % 6.19 C
65 09-04-2018 05:20:00 7.3 C 92 % 6.09 C
66 09-04-2018 05:25:00 7.3 C 92 % 6.09 C
67 09-04-2018 05:30:00 7.3 C 92 % 6.09 C
68 09-04-2018 05:35:00 7.3 C 93 % 6.25 C
69 09-04-2018 05:40:00 7.3 C 92 % 6.09 C
70 09-04-2018 05:45:00 7.4 C 93 % 6.34 C
71 09-04-2018 05:50:00 7.3 C 92 % 6.09 C
72 09-04-2018 05:55:00 7.3 C 92 % 6.09 C
73 09-04-2018 06:00:00 7.2 C 92 % 5.99 C
74 09-04-2018 06:05:00 7.2 C 92 % 5.99 C
75 09-04-2018 06:10:00 7.1 C 92 % 5.89 C
Sensor: Nr:Datum:Temp:Feuchte:Taupunkt:
Aussen-T/F 76 09-04-2018 06:15:00 7 C 92 % 5.79 C
77 09-04-2018 06:20:00 6.9 C 92 % 5.69 C
78 09-04-2018 06:25:00 6.8 C 92 % 5.59 C
79 09-04-2018 06:30:00 6.7 C 92 % 5.49 C
80 09-04-2018 06:35:00 6.8 C 93 % 5.75 C
81 09-04-2018 06:40:00 6.8 C 93 % 5.75 C
82 09-04-2018 06:45:00 6.8 C 93 % 5.75 C
83 09-04-2018 06:50:00 6.8 C 93 % 5.75 C
84 09-04-2018 06:55:00 6.8 C 93 % 5.75 C
85 09-04-2018 07:00:00 6.9 C 94 % 6 C
86 09-04-2018 07:05:00 6.9 C 94 % 6 C
87 09-04-2018 07:10:00 7 C 94 % 6.1 C
88 09-04-2018 07:15:00 7.1 C 94 % 6.2 C
89 09-04-2018 07:20:00 7.1 C 94 % 6.2 C
90 09-04-2018 07:25:00 7.1 C 94 % 6.2 C
91 09-04-2018 07:30:00 7.2 C 94 % 6.3 C
92 09-04-2018 07:35:00 7.2 C 94 % 6.3 C
93 09-04-2018 07:40:00 7.2 C 94 % 6.3 C
94 09-04-2018 07:45:00 7.2 C 94 % 6.3 C
95 09-04-2018 07:50:00 7.3 C 94 % 6.4 C
96 09-04-2018 07:55:00 7.4 C 94 % 6.5 C
97 09-04-2018 08:00:00 7.6 C 94 % 6.7 C
98 09-04-2018 08:05:00 7.6 C 94 % 6.7 C
99 09-04-2018 08:10:00 7.7 C 94 % 6.8 C
100 09-04-2018 08:15:00 7.7 C 94 % 6.8 C
Sensor: Nr:Datum:Temp:Feuchte:Taupunkt:
Aussen-T/F 101 09-04-2018 08:20:00 7.8 C 94 % 6.9 C
102 09-04-2018 08:25:00 7.9 C 94 % 7 C
103 09-04-2018 08:30:00 7.9 C 94 % 7 C
104 09-04-2018 08:35:00 8.1 C 94 % 7.19 C
105 09-04-2018 08:40:00 8.2 C 94 % 7.29 C
106 09-04-2018 08:45:00 8.3 C 94 % 7.39 C
107 09-04-2018 08:50:00 8.4 C 94 % 7.49 C
108 09-04-2018 08:55:00 8.5 C 94 % 7.59 C
109 09-04-2018 09:00:00 8.6 C 93 % 7.53 C
110 09-04-2018 09:05:00 8.7 C 93 % 7.63 C
111 09-04-2018 09:10:00 8.9 C 93 % 7.83 C
112 09-04-2018 09:15:00 9 C 93 % 7.93 C
113 09-04-2018 09:20:00 9.2 C 92 % 7.97 C
114 09-04-2018 09:25:00 9.3 C 91 % 7.91 C
115 09-04-2018 09:30:00 9.4 C 90 % 7.85 C
116 09-04-2018 09:35:00 9.6 C 90 % 8.04 C
117 09-04-2018 09:40:00 9.7 C 89 % 7.98 C
118 09-04-2018 09:45:00 9.9 C 89 % 8.17 C
119 09-04-2018 09:50:00 10.1 C 88 % 8.21 C
120 09-04-2018 09:55:00 10.2 C 88 % 8.3 C
121 09-04-2018 10:00:00 10.3 C 87 % 8.23 C
122 09-04-2018 10:05:00 10.6 C 86 % 8.36 C
123 09-04-2018 10:10:00 10.8 C 85 % 8.38 C
124 09-04-2018 10:15:00 11.1 C 85 % 8.68 C
125 09-04-2018 10:20:00 11.3 C 84 % 8.7 C
Sensor: Nr:Datum:Temp:Feuchte:Taupunkt:
Aussen-T/F 126 09-04-2018 10:25:00 11.6 C 84 % 8.99 C
127 09-04-2018 10:30:00 11.8 C 83 % 9.01 C
128 09-04-2018 10:35:00 12.1 C 82 % 9.12 C
129 09-04-2018 10:40:00 12.4 C 81 % 9.23 C
130 09-04-2018 10:45:00 12.8 C 79 % 9.25 C
131 09-04-2018 10:50:00 13.1 C 80 % 9.73 C
132 09-04-2018 10:55:00 13.4 C 78 % 9.65 C
133 09-04-2018 11:00:00 13.6 C 78 % 9.84 C
134 09-04-2018 11:05:00 13.7 C 77 % 9.75 C
135 09-04-2018 11:10:00 13.9 C 76 % 9.74 C
136 09-04-2018 11:15:00 14.1 C 75 % 9.74 C
137 09-04-2018 11:20:00 14.2 C 73 % 9.43 C
138 09-04-2018 11:25:00 14.3 C 74 % 9.73 C
139 09-04-2018 11:30:00 14.5 C 73 % 9.72 C
140 09-04-2018 11:35:00 14.7 C 73 % 9.92 C
141 09-04-2018 11:40:00 14.9 C 72 % 9.9 C
142 09-04-2018 11:45:00 15.2 C 71 % 9.98 C
143 09-04-2018 11:50:00 15.4 C 71 % 10.17 C
144 09-04-2018 11:55:00 15.6 C 71 % 10.37 C
145 09-04-2018 12:00:00 15.7 C 69 % 10.03 C
146 09-04-2018 12:05:00 15.8 C 69 % 10.13 C
147 09-04-2018 12:10:00 15.9 C 68 % 10.01 C
148 09-04-2018 12:15:00 16.1 C 68 % 10.2 C
149 09-04-2018 12:20:00 16.3 C 68 % 10.39 C
150 09-04-2018 12:25:00 16.5 C 68 % 10.58 C
Sensor: Nr:Datum:Temp:Feuchte:Taupunkt:
Aussen-T/F 151 09-04-2018 12:30:00 16.7 C 67 % 10.55 C
152 09-04-2018 12:35:00 16.9 C 66 % 10.51 C
153 09-04-2018 12:40:00 17.1 C 65 % 10.47 C
154 09-04-2018 12:45:00 17.3 C 65 % 10.66 C
155 09-04-2018 12:50:00 17.4 C 64 % 10.53 C
156 09-04-2018 12:55:00 17.7 C 63 % 10.57 C
157 09-04-2018 13:00:00 17.8 C 62 % 10.43 C
158 09-04-2018 13:05:00 18.1 C 60 % 10.22 C
159 09-04-2018 13:10:00 18.2 C 60 % 10.31 C
160 09-04-2018 13:15:00 18.3 C 60 % 10.41 C
161 09-04-2018 13:20:00 18.4 C 59 % 10.25 C
162 09-04-2018 13:25:00 18.6 C 58 % 10.18 C
163 09-04-2018 13:30:00 18.8 C 57 % 10.11 C
164 09-04-2018 13:35:00 19.1 C 58 % 10.65 C
165 09-04-2018 13:40:00 19.3 C 54 % 9.77 C
166 09-04-2018 13:45:00 19.6 C 50 % 8.9 C
167 09-04-2018 13:50:00 19.8 C 49 % 8.79 C
168 09-04-2018 13:55:00 20.1 C 49 % 9.06 C
169 09-04-2018 14:00:00 20.3 C 47 % 8.63 C
170 09-04-2018 14:05:00 20.5 C 46 % 8.49 C
171 09-04-2018 14:10:00 20.6 C 47 % 8.9 C
172 09-04-2018 14:15:00 20.8 C 45 % 8.44 C
173 09-04-2018 14:20:00 20.9 C 45 % 8.53 C
174 09-04-2018 14:25:00 21.1 C 45 % 8.71 C
175 09-04-2018 14:30:00 21.2 C 43 % 8.13 C
Sensor: Nr:Datum:Temp:Feuchte:Taupunkt:
Aussen-T/F 176 09-04-2018 14:35:00 21.2 C 44 % 8.47 C
177 09-04-2018 14:40:00 21.2 C 44 % 8.47 C
178 09-04-2018 14:45:00 21.2 C 43 % 8.13 C
179 09-04-2018 14:50:00 21.2 C 44 % 8.47 C
180 09-04-2018 14:55:00 21.1 C 43 % 8.04 C
181 09-04-2018 15:00:00 21.1 C 44 % 8.38 C
182 09-04-2018 15:05:00 21.1 C 43 % 8.04 C
183 09-04-2018 15:10:00 21.1 C 43 % 8.04 C
184 09-04-2018 15:15:00 21.2 C 44 % 8.47 C
185 09-04-2018 15:20:00 21.2 C 43 % 8.13 C
186 09-04-2018 15:25:00 21.2 C 42 % 7.79 C
187 09-04-2018 15:30:00 21.2 C 43 % 8.13 C
188 09-04-2018 15:35:00 21.3 C 42 % 7.88 C
189 09-04-2018 15:40:00 21.4 C 43 % 8.31 C
190 09-04-2018 15:45:00 21.6 C 43 % 8.49 C
191 09-04-2018 15:50:00 21.6 C 42 % 8.15 C
192 09-04-2018 15:55:00 21.6 C 43 % 8.49 C
193 09-04-2018 16:00:00 21.6 C 42 % 8.15 C
194 09-04-2018 16:05:00 21.6 C 42 % 8.15 C
195 09-04-2018 16:10:00 21.6 C 42 % 8.15 C
196 09-04-2018 16:15:00 21.6 C 41 % 7.79 C
197 09-04-2018 16:20:00 21.7 C 44 % 8.92 C
198 09-04-2018 16:25:00 21.8 C 43 % 8.67 C
199 09-04-2018 16:30:00 21.8 C 45 % 9.35 C
200 09-04-2018 16:35:00 21.8 C 43 % 8.67 C
Sensor: Nr:Datum:Temp:Feuchte:Taupunkt:
Aussen-T/F 201 09-04-2018 16:40:00 21.7 C 45 % 9.26 C
202 09-04-2018 16:45:00 21.7 C 45 % 9.26 C
203 09-04-2018 16:50:00 21.6 C 45 % 9.17 C
204 09-04-2018 16:55:00 21.4 C 45 % 8.99 C
205 09-04-2018 17:00:00 21.3 C 45 % 8.89 C
206 09-04-2018 17:05:00 21.3 C 46 % 9.22 C
207 09-04-2018 17:10:00 21.2 C 46 % 9.13 C
208 09-04-2018 17:15:00 21.1 C 47 % 9.36 C
209 09-04-2018 17:20:00 20.8 C 46 % 8.77 C
210 09-04-2018 17:25:00 20.7 C 47 % 8.99 C
211 09-04-2018 17:30:00 20.6 C 48 % 9.21 C
212 09-04-2018 17:35:00 20.4 C 48 % 9.03 C
213 09-04-2018 17:40:00 20.4 C 48 % 9.03 C
214 09-04-2018 17:45:00 20.5 C 48 % 9.12 C
215 09-04-2018 17:50:00 20.5 C 49 % 9.43 C
216 09-04-2018 17:55:00 20.4 C 48 % 9.03 C
217 09-04-2018 18:00:00 20.4 C 49 % 9.34 C
218 09-04-2018 18:05:00 20.3 C 48 % 8.94 C
219 09-04-2018 18:10:00 20.3 C 49 % 9.24 C
220 09-04-2018 18:15:00 20.2 C 48 % 8.85 C
221 09-04-2018 18:20:00 20.2 C 50 % 9.45 C
222 09-04-2018 18:25:00 20.1 C 48 % 8.76 C
223 09-04-2018 18:30:00 20.2 C 51 % 9.75 C
224 09-04-2018 18:35:00 20.3 C 50 % 9.54 C
225 09-04-2018 18:40:00 20.6 C 47 % 8.9 C
Sensor: Nr:Datum:Temp:Feuchte:Taupunkt:
Aussen-T/F 226 09-04-2018 18:45:00 20.8 C 47 % 9.08 C
227 09-04-2018 18:50:00 20.9 C 46 % 8.86 C
228 09-04-2018 18:55:00 20.9 C 48 % 9.49 C
229 09-04-2018 19:00:00 20.9 C 46 % 8.86 C
230 09-04-2018 19:05:00 20.7 C 49 % 9.61 C
231 09-04-2018 19:10:00 20.6 C 50 % 9.82 C
232 09-04-2018 19:15:00 20.3 C 50 % 9.54 C
233 09-04-2018 19:20:00 20.1 C 51 % 9.66 C
234 09-04-2018 19:25:00 19.7 C 54 % 10.14 C
235 09-04-2018 19:30:00 19.4 C 55 % 10.13 C
236 09-04-2018 19:35:00 19 C 56 % 10.03 C
237 09-04-2018 19:40:00 18.7 C 58 % 10.28 C
238 09-04-2018 19:45:00 18.2 C 59 % 10.06 C
239 09-04-2018 19:50:00 17.8 C 60 % 9.94 C
240 09-04-2018 19:55:00 17.6 C 61 % 10 C
241 09-04-2018 20:00:00 17.2 C 62 % 9.86 C
242 09-04-2018 20:05:00 16.9 C 63 % 9.82 C
243 09-04-2018 20:10:00 16.7 C 63 % 9.63 C
244 09-04-2018 20:15:00 16.4 C 64 % 9.58 C
245 09-04-2018 20:20:00 16.2 C 65 % 9.62 C
246 09-04-2018 20:25:00 16 C 66 % 9.66 C
247 09-04-2018 20:30:00 15.8 C 66 % 9.47 C
248 09-04-2018 20:35:00 15.7 C 67 % 9.6 C
249 09-04-2018 20:40:00 15.6 C 68 % 9.72 C
250 09-04-2018 20:45:00 15.4 C 68 % 9.53 C
Sensor: Nr:Datum:Temp:Feuchte:Taupunkt:
Aussen-T/F 251 09-04-2018 20:50:00 15.3 C 68 % 9.43 C
252 09-04-2018 20:55:00 15.3 C 69 % 9.65 C
253 09-04-2018 21:00:00 15.2 C 69 % 9.56 C
254 09-04-2018 21:05:00 15.1 C 70 % 9.67 C
255 09-04-2018 21:10:00 15 C 70 % 9.58 C
256 09-04-2018 21:15:00 14.9 C 70 % 9.48 C
257 09-04-2018 21:20:00 14.8 C 71 % 9.6 C
258 09-04-2018 21:25:00 14.7 C 72 % 9.71 C
259 09-04-2018 21:30:00 14.7 C 72 % 9.71 C
260 09-04-2018 21:35:00 14.6 C 72 % 9.61 C
261 09-04-2018 21:40:00 14.6 C 73 % 9.82 C
262 09-04-2018 21:45:00 14.6 C 73 % 9.82 C
263 09-04-2018 21:50:00 14.5 C 73 % 9.72 C
264 09-04-2018 21:55:00 14.4 C 73 % 9.63 C
265 09-04-2018 22:00:00 14.3 C 74 % 9.73 C
266 09-04-2018 22:05:00 14.3 C 73 % 9.53 C
267 09-04-2018 22:10:00 14.2 C 74 % 9.64 C
268 09-04-2018 22:15:00 14.2 C 75 % 9.84 C
269 09-04-2018 22:20:00 14.1 C 75 % 9.74 C
270 09-04-2018 22:25:00 14.1 C 75 % 9.74 C
271 09-04-2018 22:30:00 14 C 76 % 9.84 C
272 09-04-2018 22:35:00 14 C 76 % 9.84 C
273 09-04-2018 22:40:00 14 C 76 % 9.84 C
274 09-04-2018 22:45:00 13.9 C 77 % 9.94 C
275 09-04-2018 22:50:00 13.9 C 77 % 9.94 C
Sensor: Nr:Datum:Temp:Feuchte:Taupunkt:
Aussen-T/F 276 09-04-2018 22:55:00 13.8 C 78 % 10.03 C
277 09-04-2018 23:00:00 13.8 C 78 % 10.03 C
278 09-04-2018 23:05:00 13.7 C 78 % 9.94 C
279 09-04-2018 23:10:00 13.6 C 79 % 10.03 C
280 09-04-2018 23:15:00 13.6 C 79 % 10.03 C
281 09-04-2018 23:20:00 13.5 C 80 % 10.12 C
282 09-04-2018 23:25:00 13.4 C 80 % 10.02 C
283 09-04-2018 23:30:00 13.3 C 81 % 10.11 C
284 09-04-2018 23:35:00 13.3 C 81 % 10.11 C
285 09-04-2018 23:40:00 13.2 C 81 % 10.01 C
286 09-04-2018 23:45:00 13.1 C 81 % 9.92 C
287 09-04-2018 23:50:00 13 C 82 % 10 C
288 09-04-2018 23:55:00 12.9 C 82 % 9.9 C
289 10-04-2018 00:00:00 12.9 C 82 % 9.9 C
290 10-04-2018 00:05:00 12.9 C 83 % 10.09 C
291 10-04-2018 00:10:00 12.9 C 83 % 10.09 C
292 10-04-2018 00:15:00 12.9 C 83 % 10.09 C
293 10-04-2018 00:20:00 12.8 C 83 % 9.99 C
294 10-04-2018 00:25:00 12.8 C 83 % 9.99 C
295 10-04-2018 00:30:00 12.8 C 83 % 9.99 C
296 10-04-2018 00:35:00 12.8 C 83 % 9.99 C
297 10-04-2018 00:40:00 12.7 C 83 % 9.89 C
298 10-04-2018 00:45:00 12.7 C 83 % 9.89 C
299 10-04-2018 00:50:00 12.6 C 84 % 9.97 C
300 10-04-2018 00:55:00 12.5 C 84 % 9.87 C
Sensor: Nr:Datum:Temp:Feuchte:Taupunkt:
Aussen-T/F 301 10-04-2018 01:00:00 12.4 C 84 % 9.78 C
302 10-04-2018 01:05:00 12.4 C 84 % 9.78 C
303 10-04-2018 01:10:00 12.3 C 85 % 9.85 C
304 10-04-2018 01:15:00 12.3 C 85 % 9.85 C
305 10-04-2018 01:20:00 12.2 C 85 % 9.76 C
306 10-04-2018 01:25:00 12.1 C 86 % 9.83 C
307 10-04-2018 01:30:00 12.1 C 86 % 9.83 C
308 10-04-2018 01:35:00 12.1 C 86 % 9.83 C
309 10-04-2018 01:40:00 12 C 86 % 9.73 C
310 10-04-2018 01:45:00 11.9 C 86 % 9.64 C
311 10-04-2018 01:50:00 11.9 C 86 % 9.64 C
312 10-04-2018 01:55:00 11.9 C 87 % 9.81 C
313 10-04-2018 02:00:00 11.8 C 87 % 9.71 C
314 10-04-2018 02:05:00 11.8 C 87 % 9.71 C
315 10-04-2018 02:10:00 11.7 C 87 % 9.61 C
316 10-04-2018 02:15:00 11.7 C 87 % 9.61 C
317 10-04-2018 02:20:00 11.6 C 87 % 9.51 C
318 10-04-2018 02:25:00 11.6 C 88 % 9.68 C
319 10-04-2018 02:30:00 11.5 C 88 % 9.58 C
320 10-04-2018 02:35:00 11.5 C 88 % 9.58 C
321 10-04-2018 02:40:00 11.5 C 88 % 9.58 C
322 10-04-2018 02:45:00 11.4 C 88 % 9.49 C
323 10-04-2018 02:50:00 11.4 C 89 % 9.65 C
324 10-04-2018 02:55:00 11.4 C 89 % 9.65 C
325 10-04-2018 03:00:00 11.4 C 89 % 9.65 C
Sensor: Nr:Datum:Temp:Feuchte:Taupunkt:
Aussen-T/F 326 10-04-2018 03:05:00 11.4 C 89 % 9.65 C
327 10-04-2018 03:10:00 11.3 C 89 % 9.55 C
328 10-04-2018 03:15:00 11.3 C 89 % 9.55 C
329 10-04-2018 03:20:00 11.2 C 88 % 9.29 C
330 10-04-2018 03:25:00 11.2 C 89 % 9.46 C
331 10-04-2018 03:30:00 11.1 C 89 % 9.36 C
332 10-04-2018 03:35:00 11 C 89 % 9.26 C
333 10-04-2018 03:40:00 11 C 89 % 9.26 C
334 10-04-2018 03:45:00 11 C 89 % 9.26 C
335 10-04-2018 03:50:00 10.9 C 89 % 9.16 C
336 10-04-2018 03:55:00 10.9 C 89 % 9.16 C
337 10-04-2018 04:00:00 10.8 C 90 % 9.23 C
338 10-04-2018 04:05:00 10.8 C 90 % 9.23 C
339 10-04-2018 04:10:00 10.7 C 89 % 8.96 C
340 10-04-2018 04:15:00 10.6 C 89 % 8.86 C
341 10-04-2018 04:20:00 10.5 C 90 % 8.93 C
342 10-04-2018 04:25:00 10.4 C 90 % 8.83 C
343 10-04-2018 04:30:00 10.4 C 90 % 8.83 C
344 10-04-2018 04:35:00 10.4 C 90 % 8.83 C
345 10-04-2018 04:40:00 10.3 C 91 % 8.9 C
346 10-04-2018 04:45:00 10.3 C 91 % 8.9 C
347 10-04-2018 04:50:00 10.3 C 91 % 8.9 C
348 10-04-2018 04:55:00 10.3 C 91 % 8.9 C
349 10-04-2018 05:00:00 10.2 C 91 % 8.8 C
350 10-04-2018 05:05:00 10.2 C 91 % 8.8 C
Sensor: Nr:Datum:Temp:Feuchte:Taupunkt:
Aussen-T/F 351 10-04-2018 05:10:00 10.1 C 91 % 8.7 C
352 10-04-2018 05:15:00 10.1 C 92 % 8.86 C
353 10-04-2018 05:20:00 10.1 C 92 % 8.86 C
354 10-04-2018 05:25:00 10.1 C 92 % 8.86 C
355 10-04-2018 05:30:00 10.1 C 92 % 8.86 C
356 10-04-2018 05:35:00 10.1 C 92 % 8.86 C
357 10-04-2018 05:40:00 10.1 C 92 % 8.86 C
358 10-04-2018 05:45:00 10.1 C 92 % 8.86 C
359 10-04-2018 05:50:00 10 C 92 % 8.76 C
360 10-04-2018 05:55:00 10 C 92 % 8.76 C
361 10-04-2018 06:00:00 9.9 C 92 % 8.66 C
362 10-04-2018 06:05:00 9.9 C 92 % 8.66 C
363 10-04-2018 06:10:00 9.9 C 92 % 8.66 C
364 10-04-2018 06:15:00 9.8 C 92 % 8.56 C
365 10-04-2018 06:20:00 9.8 C 92 % 8.56 C
366 10-04-2018 06:25:00 9.7 C 92 % 8.46 C
367 10-04-2018 06:30:00 9.6 C 91 % 8.21 C
368 10-04-2018 06:35:00 9.4 C 92 % 8.17 C
369 10-04-2018 06:40:00 9.3 C 92 % 8.07 C
370 10-04-2018 06:45:00 9.3 C 92 % 8.07 C
371 10-04-2018 06:50:00 9.2 C 92 % 7.97 C
372 10-04-2018 06:55:00 9.2 C 93 % 8.13 C
373 10-04-2018 07:00:00 9.2 C 93 % 8.13 C
374 10-04-2018 07:05:00 9.2 C 93 % 8.13 C
375 10-04-2018 07:10:00 9.2 C 93 % 8.13 C
Sensor: Nr:Datum:Temp:Feuchte:Taupunkt:
Aussen-T/F 376 10-04-2018 07:15:00 9.3 C 93 % 8.23 C
377 10-04-2018 07:20:00 9.4 C 94 % 8.48 C
378 10-04-2018 07:25:00 9.5 C 94 % 8.58 C
379 10-04-2018 07:30:00 9.6 C 94 % 8.68 C
380 10-04-2018 07:35:00 9.6 C 94 % 8.68 C
381 10-04-2018 07:40:00 9.6 C 94 % 8.68 C
382 10-04-2018 07:45:00 9.6 C 94 % 8.68 C
383 10-04-2018 07:50:00 9.7 C 94 % 8.78 C
384 10-04-2018 07:55:00 9.7 C 94 % 8.78 C
385 10-04-2018 08:00:00 9.7 C 94 % 8.78 C
386 10-04-2018 08:05:00 9.8 C 94 % 8.88 C
387 10-04-2018 08:10:00 9.9 C 94 % 8.98 C
388 10-04-2018 08:15:00 9.9 C 94 % 8.98 C
389 10-04-2018 08:20:00 10 C 94 % 9.08 C
390 10-04-2018 08:25:00 10.1 C 94 % 9.18 C
391 10-04-2018 08:30:00 10.2 C 94 % 9.28 C
392 10-04-2018 08:35:00 10.2 C 94 % 9.28 C
393 10-04-2018 08:40:00 10.3 C 94 % 9.38 C
394 10-04-2018 08:45:00 10.4 C 94 % 9.48 C
395 10-04-2018 08:50:00 10.5 C 94 % 9.58 C
396 10-04-2018 08:55:00 10.6 C 94 % 9.68 C
397 10-04-2018 09:00:00 10.7 C 93 % 9.62 C
398 10-04-2018 09:05:00 10.8 C 93 % 9.71 C
399 10-04-2018 09:10:00 10.9 C 92 % 9.65 C
400 10-04-2018 09:15:00 11 C 92 % 9.75 C
Sensor: Nr:Datum:Temp:Feuchte:Taupunkt:
Aussen-T/F 401 10-04-2018 09:20:00 11.2 C 92 % 9.95 C
402 10-04-2018 09:25:00 11.2 C 92 % 9.95 C
403 10-04-2018 09:30:00 11.3 C 92 % 10.05 C
404 10-04-2018 09:35:00 11.5 C 91 % 10.08 C
405 10-04-2018 09:40:00 11.6 C 91 % 10.18 C
406 10-04-2018 09:45:00 11.8 C 90 % 10.21 C
407 10-04-2018 09:50:00 11.9 C 90 % 10.31 C
408 10-04-2018 09:55:00 12 C 89 % 10.25 C
409 10-04-2018 10:00:00 12.1 C 89 % 10.34 C
410 10-04-2018 10:05:00 12.2 C 89 % 10.44 C
411 10-04-2018 10:10:00 12.3 C 89 % 10.54 C
412 10-04-2018 10:15:00 12.4 C 88 % 10.47 C
413 10-04-2018 10:20:00 12.5 C 88 % 10.57 C
414 10-04-2018 10:25:00 12.6 C 87 % 10.5 C
415 10-04-2018 10:30:00 12.7 C 87 % 10.59 C
416 10-04-2018 10:35:00 12.7 C 86 % 10.42 C
417 10-04-2018 10:40:00 12.8 C 86 % 10.52 C
418 10-04-2018 10:45:00 12.9 C 85 % 10.44 C
419 10-04-2018 10:50:00 13 C 85 % 10.54 C
420 10-04-2018 10:55:00 13.1 C 85 % 10.64 C
421 10-04-2018 11:00:00 13.2 C 85 % 10.74 C
422 10-04-2018 11:05:00 13.3 C 85 % 10.83 C
423 10-04-2018 11:10:00 13.4 C 84 % 10.75 C
424 10-04-2018 11:15:00 13.5 C 84 % 10.85 C
425 10-04-2018 11:20:00 13.7 C 84 % 11.05 C
Sensor: Nr:Datum:Temp:Feuchte:Taupunkt:
Aussen-T/F 426 10-04-2018 11:25:00 13.8 C 83 % 10.97 C
427 10-04-2018 11:30:00 13.9 C 82 % 10.88 C
428 10-04-2018 11:35:00 14 C 83 % 11.16 C
429 10-04-2018 11:40:00 14.2 C 82 % 11.17 C
430 10-04-2018 11:45:00 14.3 C 82 % 11.27 C
431 10-04-2018 11:50:00 14.4 C 82 % 11.37 C
432 10-04-2018 11:55:00 14.4 C 81 % 11.18 C
433 10-04-2018 12:00:00 14.5 C 80 % 11.09 C
434 10-04-2018 12:05:00 14.6 C 80 % 11.19 C
435 10-04-2018 12:10:00 14.5 C 80 % 11.09 C
436 10-04-2018 12:15:00 14.6 C 80 % 11.19 C
437 10-04-2018 12:20:00 14.7 C 81 % 11.48 C
438 10-04-2018 12:25:00 14.8 C 80 % 11.39 C
439 10-04-2018 12:30:00 15 C 80 % 11.58 C
440 10-04-2018 12:35:00 15.2 C 79 % 11.59 C
441 10-04-2018 12:40:00 15.3 C 78 % 11.49 C
442 10-04-2018 12:45:00 15.6 C 79 % 11.97 C
443 10-04-2018 12:50:00 15.7 C 77 % 11.68 C
444 10-04-2018 12:55:00 15.9 C 77 % 11.88 C
445 10-04-2018 13:00:00 16.2 C 73 % 11.36 C
446 10-04-2018 13:05:00 16.3 C 67 % 10.17 C
447 10-04-2018 13:10:00 16.4 C 68 % 10.48 C
448 10-04-2018 13:15:00 16.6 C 67 % 10.45 C
449 10-04-2018 13:20:00 16.8 C 64 % 9.96 C
450 10-04-2018 13:25:00 16.9 C 65 % 10.28 C
Sensor: Nr:Datum:Temp:Feuchte:Taupunkt:
Aussen-T/F 451 10-04-2018 13:30:00 17 C 67 % 10.83 C
452 10-04-2018 13:35:00 17.2 C 64 % 10.34 C
453 10-04-2018 13:40:00 17.3 C 64 % 10.43 C
454 10-04-2018 13:45:00 17.4 C 63 % 10.29 C
455 10-04-2018 13:50:00 17.4 C 64 % 10.53 C
456 10-04-2018 13:55:00 17.6 C 62 % 10.24 C
457 10-04-2018 14:00:00 17.7 C 60 % 9.84 C
458 10-04-2018 14:05:00 17.7 C 59 % 9.59 C
459 10-04-2018 14:10:00 17.8 C 61 % 10.18 C
460 10-04-2018 14:15:00 17.8 C 61 % 10.18 C
461 10-04-2018 14:20:00 17.8 C 59 % 9.69 C
462 10-04-2018 14:25:00 18 C 59 % 9.88 C
463 10-04-2018 14:30:00 18.1 C 60 % 10.22 C
464 10-04-2018 14:35:00 18.2 C 58 % 9.81 C
465 10-04-2018 14:40:00 18.3 C 57 % 9.64 C
466 10-04-2018 14:45:00 18.3 C 56 % 9.38 C
467 10-04-2018 14:50:00 18.4 C 58 % 9.99 C
468 10-04-2018 14:55:00 18.7 C 56 % 9.75 C
469 10-04-2018 15:00:00 18.8 C 58 % 10.37 C
470 10-04-2018 15:05:00 18.9 C 57 % 10.2 C
471 10-04-2018 15:10:00 18.9 C 55 % 9.67 C
472 10-04-2018 15:15:00 19 C 55 % 9.76 C
473 10-04-2018 15:20:00 19 C 53 % 9.21 C
474 10-04-2018 15:25:00 19.1 C 55 % 9.86 C
475 10-04-2018 15:30:00 19.2 C 50 % 8.53 C
Sensor: Nr:Datum:Temp:Feuchte:Taupunkt:
Aussen-T/F 476 10-04-2018 15:35:00 19.4 C 52 % 9.3 C
477 10-04-2018 15:40:00 19.6 C 51 % 9.2 C
478 10-04-2018 15:45:00 19.7 C 51 % 9.29 C
479 10-04-2018 15:50:00 19.8 C 49 % 8.79 C
480 10-04-2018 15:55:00 19.9 C 50 % 9.18 C
481 10-04-2018 16:00:00 19.9 C 51 % 9.47 C
482 10-04-2018 16:05:00 20.2 C 51 % 9.75 C
483 10-04-2018 16:10:00 20.3 C 48 % 8.94 C
484 10-04-2018 16:15:00 20.4 C 50 % 9.64 C
485 10-04-2018 16:20:00 20.6 C 49 % 9.52 C
486 10-04-2018 16:25:00 20.8 C 49 % 9.7 C
487 10-04-2018 16:30:00 20.8 C 48 % 9.4 C
488 10-04-2018 16:35:00 20.7 C 51 % 10.21 C
489 10-04-2018 16:40:00 20.6 C 49 % 9.52 C
490 10-04-2018 16:45:00 20.3 C 50 % 9.54 C
491 10-04-2018 16:50:00 20.1 C 50 % 9.36 C
492 10-04-2018 16:55:00 19.8 C 51 % 9.38 C
493 10-04-2018 17:00:00 19.5 C 52 % 9.39 C
494 10-04-2018 17:05:00 19.3 C 52 % 9.21 C
495 10-04-2018 17:10:00 19 C 53 % 9.21 C
496 10-04-2018 17:15:00 18.7 C 53 % 8.93 C
497 10-04-2018 17:20:00 18.5 C 53 % 8.75 C
498 10-04-2018 17:25:00 18.3 C 55 % 9.11 C
499 10-04-2018 17:30:00 18.2 C 56 % 9.29 C
500 10-04-2018 17:35:00 18.1 C 56 % 9.19 C
Sensor: Nr:Datum:Temp:Feuchte:Taupunkt:
Aussen-T/F 501 10-04-2018 17:40:00 17.9 C 56 % 9.01 C
502 10-04-2018 17:45:00 17.7 C 57 % 9.08 C
503 10-04-2018 17:50:00 17.6 C 58 % 9.25 C
504 10-04-2018 17:55:00 17.5 C 60 % 9.66 C
505 10-04-2018 18:00:00 17.4 C 61 % 9.81 C
506 10-04-2018 18:05:00 17.2 C 60 % 9.37 C
507 10-04-2018 18:10:00 17.1 C 59 % 9.03 C
508 10-04-2018 18:15:00 17.1 C 60 % 9.28 C
509 10-04-2018 18:20:00 17.1 C 61 % 9.53 C
510 10-04-2018 18:25:00 17 C 62 % 9.67 C
511 10-04-2018 18:30:00 16.9 C 62 % 9.58 C
512 10-04-2018 18:35:00 16.7 C 63 % 9.63 C
513 10-04-2018 18:40:00 16.6 C 63 % 9.53 C
514 10-04-2018 18:45:00 16.5 C 63 % 9.44 C
515 10-04-2018 18:50:00 16.4 C 64 % 9.58 C
516 10-04-2018 18:55:00 16.3 C 64 % 9.48 C
517 10-04-2018 19:00:00 16.2 C 64 % 9.39 C
518 10-04-2018 19:05:00 16.1 C 63 % 9.06 C
519 10-04-2018 19:10:00 15.9 C 64 % 9.11 C
520 10-04-2018 19:15:00 15.9 C 63 % 8.87 C
521 10-04-2018 19:20:00 15.8 C 64 % 9.01 C
522 10-04-2018 19:25:00 15.8 C 64 % 9.01 C
523 10-04-2018 19:30:00 15.7 C 64 % 8.92 C
524 10-04-2018 19:35:00 15.7 C 64 % 8.92 C
525 10-04-2018 19:40:00 15.6 C 66 % 9.28 C
Sensor: Nr:Datum:Temp:Feuchte:Taupunkt:
Aussen-T/F 526 10-04-2018 19:45:00 15.6 C 68 % 9.72 C
527 10-04-2018 19:50:00 15.4 C 71 % 10.17 C
528 10-04-2018 19:55:00 15.2 C 74 % 10.6 C
529 10-04-2018 20:00:00 14.8 C 75 % 10.42 C
530 10-04-2018 20:05:00 14.4 C 77 % 10.42 C
531 10-04-2018 20:10:00 14.1 C 74 % 9.54 C
532 10-04-2018 20:15:00 13.8 C 73 % 9.05 C
533 10-04-2018 20:20:00 13.6 C 72 % 8.65 C
534 10-04-2018 20:25:00 13.4 C 72 % 8.46 C
535 10-04-2018 20:30:00 13.2 C 70 % 7.86 C
536 10-04-2018 20:35:00 13.1 C 70 % 7.76 C
537 10-04-2018 20:40:00 12.9 C 70 % 7.57 C
538 10-04-2018 20:45:00 12.8 C 70 % 7.47 C
539 10-04-2018 20:50:00 12.8 C 69 % 7.26 C
540 10-04-2018 20:55:00 12.7 C 69 % 7.17 C
541 10-04-2018 21:00:00 12.7 C 69 % 7.17 C
542 10-04-2018 21:05:00 12.6 C 69 % 7.07 C
543 10-04-2018 21:10:00 12.5 C 69 % 6.97 C
544 10-04-2018 21:15:00 12.4 C 69 % 6.88 C
545 10-04-2018 21:20:00 12.4 C 68 % 6.67 C
546 10-04-2018 21:25:00 12.3 C 69 % 6.78 C
547 10-04-2018 21:30:00 12.3 C 69 % 6.78 C
548 10-04-2018 21:35:00 12.2 C 70 % 6.9 C
549 10-04-2018 21:40:00 12.1 C 71 % 7.01 C
550 10-04-2018 21:45:00 12.1 C 72 % 7.21 C
Sensor: Nr:Datum:Temp:Feuchte:Taupunkt:
Aussen-T/F 551 10-04-2018 21:50:00 11.9 C 73 % 7.22 C
552 10-04-2018 21:55:00 11.7 C 73 % 7.03 C
553 10-04-2018 22:00:00 11.6 C 75 % 7.33 C
554 10-04-2018 22:05:00 11.4 C 80 % 8.08 C
555 10-04-2018 22:10:00 11.1 C 83 % 8.33 C
556 10-04-2018 22:15:00 10.6 C 85 % 8.19 C
557 10-04-2018 22:20:00 10.3 C 86 % 8.06 C
558 10-04-2018 22:25:00 10.1 C 87 % 8.04 C
559 10-04-2018 22:30:00 9.9 C 88 % 8.01 C
560 10-04-2018 22:35:00 9.8 C 88 % 7.91 C
561 10-04-2018 22:40:00 9.7 C 89 % 7.98 C
562 10-04-2018 22:45:00 9.6 C 90 % 8.04 C
563 10-04-2018 22:50:00 9.5 C 90 % 7.94 C
564 10-04-2018 22:55:00 9.4 C 90 % 7.85 C
565 10-04-2018 23:00:00 9.4 C 90 % 7.85 C
566 10-04-2018 23:05:00 9.4 C 91 % 8.01 C
567 10-04-2018 23:10:00 9.3 C 90 % 7.75 C
568 10-04-2018 23:15:00 9.3 C 91 % 7.91 C
569 10-04-2018 23:20:00 9.4 C 91 % 8.01 C
570 10-04-2018 23:25:00 9.3 C 91 % 7.91 C
571 10-04-2018 23:30:00 9.4 C 92 % 8.17 C
572 10-04-2018 23:35:00 9.4 C 92 % 8.17 C
573 10-04-2018 23:40:00 9.4 C 92 % 8.17 C
574 10-04-2018 23:45:00 9.4 C 92 % 8.17 C
575 10-04-2018 23:50:00 9.4 C 92 % 8.17 C
Sensor: Nr:Datum:Temp:Feuchte:Taupunkt:
Aussen-T/F 576 10-04-2018 23:55:00 9.4 C 93 % 8.33 C
577 11-04-2018 00:00:00 9.4 C 93 % 8.33 C
578 11-04-2018 00:05:00 9.4 C 93 % 8.33 C
579 11-04-2018 00:10:00 9.4 C 93 % 8.33 C
580 11-04-2018 00:15:00 9.4 C 93 % 8.33 C
581 11-04-2018 00:20:00 9.4 C 94 % 8.48 C
582 11-04-2018 00:25:00 9.4 C 94 % 8.48 C
583 11-04-2018 00:30:00 9.4 C 94 % 8.48 C
584 11-04-2018 00:35:00 9.4 C 94 % 8.48 C
585 11-04-2018 00:40:00 9.4 C 94 % 8.48 C
586 11-04-2018 00:45:00 9.4 C 94 % 8.48 C
587 11-04-2018 00:50:00 9.4 C 94 % 8.48 C
588 11-04-2018 00:55:00 9.4 C 94 % 8.48 C
589 11-04-2018 01:00:00 9.4 C 94 % 8.48 C
590 11-04-2018 01:05:00 9.5 C 94 % 8.58 C
591 11-04-2018 01:10:00 9.4 C 94 % 8.48 C
592 11-04-2018 01:15:00 9.4 C 94 % 8.48 C
593 11-04-2018 01:20:00 9.4 C 94 % 8.48 C
594 11-04-2018 01:25:00 9.4 C 95 % 8.64 C
595 11-04-2018 01:30:00 9.4 C 95 % 8.64 C
596 11-04-2018 01:35:00 9.4 C 95 % 8.64 C
597 11-04-2018 01:40:00 9.4 C 95 % 8.64 C
598 11-04-2018 01:45:00 9.4 C 95 % 8.64 C
599 11-04-2018 01:50:00 9.4 C 95 % 8.64 C
600 11-04-2018 01:55:00 9.4 C 95 % 8.64 C
Sensor: Nr:Datum:Temp:Feuchte:Taupunkt:
Aussen-T/F 601 11-04-2018 02:00:00 9.3 C 95 % 8.54 C
602 11-04-2018 02:05:00 9.3 C 95 % 8.54 C
603 11-04-2018 02:10:00 9.3 C 95 % 8.54 C
604 11-04-2018 02:15:00 9.3 C 95 % 8.54 C
605 11-04-2018 02:20:00 9.3 C 95 % 8.54 C
606 11-04-2018 02:25:00 9.3 C 95 % 8.54 C
607 11-04-2018 02:30:00 9.3 C 95 % 8.54 C
608 11-04-2018 02:35:00 9.3 C 95 % 8.54 C
609 11-04-2018 02:40:00 9.3 C 95 % 8.54 C
610 11-04-2018 02:45:00 9.3 C 95 % 8.54 C
611 11-04-2018 02:50:00 9.3 C 95 % 8.54 C
612 11-04-2018 02:55:00 9.3 C 95 % 8.54 C
613 11-04-2018 03:00:00 9.3 C 95 % 8.54 C
614 11-04-2018 03:05:00 9.3 C 95 % 8.54 C
615 11-04-2018 03:10:00 9.3 C 95 % 8.54 C
616 11-04-2018 03:15:00 9.3 C 95 % 8.54 C
617 11-04-2018 03:20:00 9.2 C 95 % 8.44 C
618 11-04-2018 03:25:00 9.2 C 95 % 8.44 C
619 11-04-2018 03:30:00 9.2 C 95 % 8.44 C
620 11-04-2018 03:35:00 9.2 C 95 % 8.44 C
621 11-04-2018 03:40:00 9.1 C 95 % 8.34 C
622 11-04-2018 03:45:00 9.1 C 95 % 8.34 C
623 11-04-2018 03:50:00 9.1 C 96 % 8.5 C
624 11-04-2018 03:55:00 9.1 C 96 % 8.5 C
625 11-04-2018 04:00:00 9.1 C 96 % 8.5 C
Sensor: Nr:Datum:Temp:Feuchte:Taupunkt:
Aussen-T/F 626 11-04-2018 04:05:00 9.1 C 96 % 8.5 C
627 11-04-2018 04:10:00 9.1 C 96 % 8.5 C
628 11-04-2018 04:15:00 9.1 C 96 % 8.5 C
629 11-04-2018 04:20:00 9.1 C 95 % 8.34 C
630 11-04-2018 04:25:00 9 C 95 % 8.24 C
631 11-04-2018 04:30:00 9 C 95 % 8.24 C
632 11-04-2018 04:35:00 8.9 C 95 % 8.14 C
633 11-04-2018 04:40:00 9 C 95 % 8.24 C
634 11-04-2018 04:45:00 8.9 C 95 % 8.14 C
635 11-04-2018 04:50:00 8.9 C 96 % 8.3 C
636 11-04-2018 04:55:00 9 C 96 % 8.4 C
637 11-04-2018 05:00:00 9 C 96 % 8.4 C
638 11-04-2018 05:05:00 9 C 96 % 8.4 C
639 11-04-2018 05:10:00 9 C 96 % 8.4 C
640 11-04-2018 05:15:00 9 C 96 % 8.4 C
641 11-04-2018 05:20:00 9 C 96 % 8.4 C
642 11-04-2018 05:25:00 9 C 96 % 8.4 C
643 11-04-2018 05:30:00 9 C 96 % 8.4 C
644 11-04-2018 05:35:00 9 C 96 % 8.4 C
645 11-04-2018 05:40:00 8.9 C 96 % 8.3 C
646 11-04-2018 05:45:00 8.9 C 96 % 8.3 C
647 11-04-2018 05:50:00 9 C 96 % 8.4 C
648 11-04-2018 05:55:00 8.9 C 96 % 8.3 C
649 11-04-2018 06:00:00 9 C 96 % 8.4 C
650 11-04-2018 06:05:00 9 C 96 % 8.4 C
Sensor: Nr:Datum:Temp:Feuchte:Taupunkt:
Aussen-T/F 651 11-04-2018 06:10:00 8.9 C 96 % 8.3 C
652 11-04-2018 06:15:00 9 C 96 % 8.4 C
653 11-04-2018 06:20:00 9 C 96 % 8.4 C
654 11-04-2018 06:25:00 8.9 C 96 % 8.3 C
655 11-04-2018 06:30:00 8.9 C 96 % 8.3 C
656 11-04-2018 06:35:00 8.9 C 96 % 8.3 C
657 11-04-2018 06:40:00 8.9 C 96 % 8.3 C
658 11-04-2018 06:45:00 8.9 C 96 % 8.3 C
659 11-04-2018 06:50:00 8.9 C 96 % 8.3 C
660 11-04-2018 06:55:00 8.9 C 96 % 8.3 C
661 11-04-2018 07:00:00 8.9 C 96 % 8.3 C
662 11-04-2018 07:05:00 8.9 C 96 % 8.3 C
663 11-04-2018 07:10:00 8.9 C 96 % 8.3 C
664 11-04-2018 07:15:00 8.8 C 96 % 8.2 C
665 11-04-2018 07:20:00 8.8 C 96 % 8.2 C
666 11-04-2018 07:25:00 8.8 C 96 % 8.2 C
667 11-04-2018 07:30:00 8.8 C 96 % 8.2 C
668 11-04-2018 07:35:00 8.8 C 96 % 8.2 C
669 11-04-2018 07:40:00 8.8 C 96 % 8.2 C
670 11-04-2018 07:45:00 8.8 C 96 % 8.2 C
671 11-04-2018 07:50:00 8.9 C 96 % 8.3 C
672 11-04-2018 07:55:00 8.9 C 96 % 8.3 C
673 11-04-2018 08:00:00 8.9 C 96 % 8.3 C
674 11-04-2018 08:05:00 8.9 C 96 % 8.3 C
675 11-04-2018 08:10:00 8.9 C 96 % 8.3 C
Sensor: Nr:Datum:Temp:Feuchte:Taupunkt:
Aussen-T/F 676 11-04-2018 08:15:00 9 C 96 % 8.4 C
677 11-04-2018 08:20:00 9 C 96 % 8.4 C
678 11-04-2018 08:25:00 9.1 C 96 % 8.5 C
679 11-04-2018 08:30:00 9.1 C 96 % 8.5 C
680 11-04-2018 08:35:00 9.1 C 96 % 8.5 C
681 11-04-2018 08:40:00 9.1 C 96 % 8.5 C
682 11-04-2018 08:45:00 9.1 C 96 % 8.5 C
683 11-04-2018 08:50:00 9 C 96 % 8.4 C
684 11-04-2018 08:55:00 9.1 C 96 % 8.5 C
685 11-04-2018 09:00:00 9.1 C 96 % 8.5 C
686 11-04-2018 09:05:00 9.1 C 96 % 8.5 C
687 11-04-2018 09:10:00 9.1 C 96 % 8.5 C
688 11-04-2018 09:15:00 9.2 C 96 % 8.6 C
689 11-04-2018 09:20:00 9.2 C 96 % 8.6 C
690 11-04-2018 09:25:00 9.3 C 96 % 8.7 C
691 11-04-2018 09:30:00 9.4 C 96 % 8.8 C
692 11-04-2018 09:35:00 9.4 C 96 % 8.8 C
693 11-04-2018 09:40:00 9.5 C 96 % 8.89 C
694 11-04-2018 09:45:00 9.6 C 96 % 8.99 C
695 11-04-2018 09:50:00 9.6 C 96 % 8.99 C
696 11-04-2018 09:55:00 9.6 C 96 % 8.99 C
697 11-04-2018 10:00:00 9.7 C 96 % 9.09 C
698 11-04-2018 10:05:00 9.7 C 96 % 9.09 C
699 11-04-2018 10:10:00 9.8 C 96 % 9.19 C
700 11-04-2018 10:15:00 9.8 C 96 % 9.19 C
Sensor: Nr:Datum:Temp:Feuchte:Taupunkt:
Aussen-T/F 701 11-04-2018 10:20:00 9.8 C 96 % 9.19 C
702 11-04-2018 10:25:00 9.9 C 96 % 9.29 C
703 11-04-2018 10:30:00 10 C 96 % 9.39 C
704 11-04-2018 10:35:00 10.1 C 95 % 9.34 C
705 11-04-2018 10:40:00 10.1 C 96 % 9.49 C
706 11-04-2018 10:45:00 10.2 C 95 % 9.44 C
707 11-04-2018 10:50:00 10.2 C 95 % 9.44 C
708 11-04-2018 10:55:00 10.2 C 95 % 9.44 C
709 11-04-2018 11:00:00 10.2 C 95 % 9.44 C
710 11-04-2018 11:05:00 10.3 C 95 % 9.54 C
711 11-04-2018 11:10:00 10.3 C 95 % 9.54 C
712 11-04-2018 11:15:00 10.4 C 95 % 9.63 C
713 11-04-2018 11:20:00 10.4 C 95 % 9.63 C
714 11-04-2018 11:25:00 10.6 C 95 % 9.83 C
715 11-04-2018 11:30:00 10.6 C 94 % 9.68 C
716 11-04-2018 11:35:00 10.4 C 94 % 9.48 C
717 11-04-2018 11:40:00 10.6 C 94 % 9.68 C
718 11-04-2018 11:45:00 10.6 C 94 % 9.68 C
719 11-04-2018 11:50:00 10.8 C 94 % 9.87 C
720 11-04-2018 11:55:00 10.9 C 94 % 9.97 C
721 11-04-2018 12:00:00 11.1 C 93 % 10.01 C
722 11-04-2018 12:05:00 11.2 C 93 % 10.11 C
723 11-04-2018 12:10:00 11.3 C 93 % 10.21 C
724 11-04-2018 12:15:00 11.4 C 93 % 10.31 C
725 11-04-2018 12:20:00 11.5 C 92 % 10.25 C
Sensor: Nr:Datum:Temp:Feuchte:Taupunkt:
Aussen-T/F 726 11-04-2018 12:25:00 11.8 C 93 % 10.71 C
727 11-04-2018 12:30:00 12.1 C 92 % 10.84 C
728 11-04-2018 12:35:00 12.2 C 92 % 10.94 C
729 11-04-2018 12:40:00 12.4 C 91 % 10.97 C
730 11-04-2018 12:45:00 12.6 C 91 % 11.17 C
731 11-04-2018 12:50:00 12.7 C 89 % 10.94 C
732 11-04-2018 12:55:00 12.9 C 87 % 10.79 C
733 11-04-2018 13:00:00 13 C 86 % 10.72 C
734 11-04-2018 13:05:00 13 C 84 % 10.36 C
735 11-04-2018 13:10:00 12.9 C 82 % 9.9 C
736 11-04-2018 13:15:00 13.1 C 82 % 10.1 C
737 11-04-2018 13:20:00 13.1 C 82 % 10.1 C
738 11-04-2018 13:25:00 13.1 C 83 % 10.28 C
739 11-04-2018 13:30:00 13.2 C 82 % 10.2 C
740 11-04-2018 13:35:00 13.2 C 82 % 10.2 C
741 11-04-2018 13:40:00 13.2 C 81 % 10.01 C
742 11-04-2018 13:45:00 13.2 C 82 % 10.2 C
743 11-04-2018 13:50:00 13.3 C 82 % 10.3 C
744 11-04-2018 13:55:00 13.5 C 81 % 10.31 C
745 11-04-2018 14:00:00 13.6 C 80 % 10.22 C
746 11-04-2018 14:05:00 13.7 C 80 % 10.32 C
747 11-04-2018 14:10:00 13.9 C 79 % 10.32 C
748 11-04-2018 14:15:00 14.1 C 79 % 10.52 C
749 11-04-2018 14:20:00 14.3 C 79 % 10.71 C
750 11-04-2018 14:25:00 14.4 C 77 % 10.42 C
Sensor: Nr:Datum:Temp:Feuchte:Taupunkt:
Aussen-T/F 751 11-04-2018 14:30:00 14.4 C 74 % 9.83 C
752 11-04-2018 14:35:00 14.5 C 76 % 10.32 C
753 11-04-2018 14:40:00 14.6 C 76 % 10.42 C
754 11-04-2018 14:45:00 14.8 C 77 % 10.81 C
755 11-04-2018 14:50:00 15.2 C 75 % 10.8 C
756 11-04-2018 14:55:00 15.2 C 73 % 10.4 C
757 11-04-2018 15:00:00 15.3 C 71 % 10.08 C
758 11-04-2018 15:05:00 15.4 C 71 % 10.17 C
759 11-04-2018 15:10:00 15.3 C 70 % 9.87 C
760 11-04-2018 15:15:00 15.4 C 70 % 9.96 C
761 11-04-2018 15:20:00 15.4 C 71 % 10.17 C
762 11-04-2018 15:25:00 15.6 C 72 % 10.57 C
763 11-04-2018 15:30:00 15.7 C 74 % 11.08 C
764 11-04-2018 15:35:00 15.7 C 72 % 10.67 C
765 11-04-2018 15:40:00 15.5 C 72 % 10.48 C
766 11-04-2018 15:45:00 15.3 C 73 % 10.49 C
767 11-04-2018 15:50:00 15.2 C 75 % 10.8 C
768 11-04-2018 15:55:00 15.4 C 72 % 10.38 C
769 11-04-2018 16:00:00 15.6 C 71 % 10.37 C
770 11-04-2018 16:05:00 15.8 C 73 % 10.97 C
771 11-04-2018 16:10:00 16.1 C 71 % 10.84 C
772 11-04-2018 16:15:00 16.3 C 72 % 11.25 C
773 11-04-2018 16:20:00 16.2 C 70 % 10.73 C
774 11-04-2018 16:25:00 16.1 C 70 % 10.63 C
775 11-04-2018 16:30:00 15.9 C 69 % 10.23 C
Sensor: Nr:Datum:Temp:Feuchte:Taupunkt:
Aussen-T/F 776 11-04-2018 16:35:00 15.7 C 71 % 10.46 C
777 11-04-2018 16:40:00 15.9 C 70 % 10.44 C
778 11-04-2018 16:45:00 16.1 C 72 % 11.06 C
779 11-04-2018 16:50:00 16.2 C 71 % 10.94 C
780 11-04-2018 16:55:00 16.4 C 71 % 11.13 C
781 11-04-2018 17:00:00 16.6 C 69 % 10.89 C
782 11-04-2018 17:05:00 16.5 C 69 % 10.8 C
783 11-04-2018 17:10:00 16.6 C 68 % 10.67 C
784 11-04-2018 17:15:00 16.8 C 69 % 11.09 C
785 11-04-2018 17:20:00 16.9 C 68 % 10.96 C
786 11-04-2018 17:25:00 16.8 C 68 % 10.87 C
787 11-04-2018 17:30:00 16.7 C 68 % 10.77 C
788 11-04-2018 17:35:00 16.6 C 68 % 10.67 C
789 11-04-2018 17:40:00 16.7 C 67 % 10.55 C
790 11-04-2018 17:45:00 16.7 C 68 % 10.77 C
791 11-04-2018 17:50:00 16.8 C 68 % 10.87 C
792 11-04-2018 17:55:00 16.7 C 67 % 10.55 C
793 11-04-2018 18:00:00 16.6 C 68 % 10.67 C
794 11-04-2018 18:05:00 16.6 C 68 % 10.67 C
795 11-04-2018 18:10:00 16.6 C 68 % 10.67 C
796 11-04-2018 18:15:00 16.4 C 68 % 10.48 C
797 11-04-2018 18:20:00 16.4 C 67 % 10.26 C
798 11-04-2018 18:25:00 16.6 C 68 % 10.67 C
799 11-04-2018 18:30:00 16.7 C 68 % 10.77 C
800 11-04-2018 18:35:00 16.6 C 67 % 10.45 C
Sensor: Nr:Datum:Temp:Feuchte:Taupunkt:
Aussen-T/F 801 11-04-2018 18:40:00 16.4 C 68 % 10.48 C
802 11-04-2018 18:45:00 16.6 C 68 % 10.67 C
803 11-04-2018 18:50:00 16.6 C 68 % 10.67 C
804 11-04-2018 18:55:00 16.7 C 68 % 10.77 C
805 11-04-2018 19:00:00 16.7 C 68 % 10.77 C
806 11-04-2018 19:05:00 16.6 C 68 % 10.67 C
807 11-04-2018 19:10:00 16.4 C 70 % 10.92 C
808 11-04-2018 19:15:00 16.2 C 71 % 10.94 C
809 11-04-2018 19:20:00 15.9 C 72 % 10.86 C
810 11-04-2018 19:25:00 15.8 C 73 % 10.97 C
811 11-04-2018 19:30:00 15.6 C 73 % 10.78 C
812 11-04-2018 19:35:00 15.4 C 74 % 10.79 C
813 11-04-2018 19:40:00 15.3 C 73 % 10.49 C
814 11-04-2018 19:45:00 15.3 C 75 % 10.9 C
815 11-04-2018 19:50:00 15.2 C 76 % 11 C
816 11-04-2018 19:55:00 15 C 77 % 11 C
817 11-04-2018 20:00:00 14.8 C 77 % 10.81 C
818 11-04-2018 20:05:00 14.5 C 78 % 10.71 C
819 11-04-2018 20:10:00 14.2 C 79 % 10.61 C
820 11-04-2018 20:15:00 13.8 C 80 % 10.41 C
821 11-04-2018 20:20:00 13.4 C 82 % 10.39 C
822 11-04-2018 20:25:00 13.2 C 83 % 10.38 C
823 11-04-2018 20:30:00 12.9 C 84 % 10.26 C
824 11-04-2018 20:35:00 12.6 C 84 % 9.97 C
825 11-04-2018 20:40:00 12.4 C 84 % 9.78 C
Sensor: Nr:Datum:Temp:Feuchte:Taupunkt:
Aussen-T/F 826 11-04-2018 20:45:00 12.2 C 85 % 9.76 C
827 11-04-2018 20:50:00 12.1 C 86 % 9.83 C
828 11-04-2018 20:55:00 11.8 C 86 % 9.54 C
829 11-04-2018 21:00:00 11.7 C 86 % 9.44 C
830 11-04-2018 21:05:00 11.6 C 87 % 9.51 C
831 11-04-2018 21:10:00 11.4 C 87 % 9.32 C
832 11-04-2018 21:15:00 11.3 C 87 % 9.22 C
833 11-04-2018 21:20:00 11.3 C 88 % 9.39 C
834 11-04-2018 21:25:00 11.2 C 88 % 9.29 C
835 11-04-2018 21:30:00 11.1 C 88 % 9.19 C
836 11-04-2018 21:35:00 10.9 C 89 % 9.16 C
837 11-04-2018 21:40:00 10.9 C 89 % 9.16 C
838 11-04-2018 21:45:00 10.8 C 89 % 9.06 C
839 11-04-2018 21:50:00 10.8 C 90 % 9.23 C
840 11-04-2018 21:55:00 10.7 C 90 % 9.13 C
841 11-04-2018 22:00:00 10.7 C 90 % 9.13 C
842 11-04-2018 22:05:00 10.5 C 90 % 8.93 C
843 11-04-2018 22:10:00 10.3 C 90 % 8.73 C
844 11-04-2018 22:15:00 10.3 C 91 % 8.9 C
845 11-04-2018 22:20:00 10.4 C 92 % 9.16 C
846 11-04-2018 22:25:00 10.4 C 91 % 9 C
847 11-04-2018 22:30:00 10.3 C 91 % 8.9 C
848 11-04-2018 22:35:00 10.2 C 91 % 8.8 C
849 11-04-2018 22:40:00 10 C 91 % 8.6 C
850 11-04-2018 22:45:00 9.9 C 91 % 8.5 C
Sensor: Nr:Datum:Temp:Feuchte:Taupunkt:
Aussen-T/F 851 11-04-2018 22:50:00 9.9 C 92 % 8.66 C
852 11-04-2018 22:55:00 9.9 C 92 % 8.66 C
853 11-04-2018 23:00:00 9.9 C 92 % 8.66 C
854 11-04-2018 23:05:00 9.9 C 92 % 8.66 C
855 11-04-2018 23:10:00 9.8 C 92 % 8.56 C
856 11-04-2018 23:15:00 9.8 C 92 % 8.56 C
857 11-04-2018 23:20:00 9.7 C 92 % 8.46 C
858 11-04-2018 23:25:00 9.7 C 92 % 8.46 C
859 11-04-2018 23:30:00 9.6 C 92 % 8.37 C
860 11-04-2018 23:35:00 9.5 C 92 % 8.27 C
861 11-04-2018 23:40:00 9.4 C 92 % 8.17 C
862 11-04-2018 23:45:00 9.3 C 92 % 8.07 C
863 11-04-2018 23:50:00 9.2 C 93 % 8.13 C
864 11-04-2018 23:55:00 9.2 C 93 % 8.13 C
865 12-04-2018 00:00:00 9.1 C 93 % 8.03 C
866 12-04-2018 00:05:00 9.1 C 93 % 8.03 C
867 12-04-2018 00:10:00 8.9 C 93 % 7.83 C
868 12-04-2018 00:15:00 8.8 C 93 % 7.73 C
869 12-04-2018 00:20:00 8.7 C 93 % 7.63 C
870 12-04-2018 00:25:00 8.7 C 93 % 7.63 C
871 12-04-2018 00:30:00 8.7 C 93 % 7.63 C
872 12-04-2018 00:35:00 8.7 C 94 % 7.79 C
873 12-04-2018 00:40:00 8.7 C 94 % 7.79 C
874 12-04-2018 00:45:00 8.6 C 94 % 7.69 C
875 12-04-2018 00:50:00 8.6 C 94 % 7.69 C
Sensor: Nr:Datum:Temp:Feuchte:Taupunkt:
Aussen-T/F 876 12-04-2018 00:55:00 8.4 C 94 % 7.49 C
877 12-04-2018 01:00:00 8.3 C 94 % 7.39 C
878 12-04-2018 01:05:00 8.3 C 94 % 7.39 C
879 12-04-2018 01:10:00 8.2 C 94 % 7.29 C
880 12-04-2018 01:15:00 8.1 C 94 % 7.19 C
881 12-04-2018 01:20:00 8.1 C 94 % 7.19 C
882 12-04-2018 01:25:00 8.1 C 94 % 7.19 C
883 12-04-2018 01:30:00 8.1 C 94 % 7.19 C
884 12-04-2018 01:35:00 7.9 C 94 % 7 C
885 12-04-2018 01:40:00 7.8 C 94 % 6.9 C
886 12-04-2018 01:45:00 7.8 C 94 % 6.9 C
887 12-04-2018 01:50:00 7.8 C 95 % 7.05 C
888 12-04-2018 01:55:00 7.9 C 95 % 7.15 C
889 12-04-2018 02:00:00 7.9 C 95 % 7.15 C
890 12-04-2018 02:05:00 7.9 C 95 % 7.15 C
891 12-04-2018 02:10:00 7.8 C 95 % 7.05 C
892 12-04-2018 02:15:00 7.7 C 95 % 6.95 C
893 12-04-2018 02:20:00 7.7 C 95 % 6.95 C
894 12-04-2018 02:25:00 7.7 C 95 % 6.95 C
895 12-04-2018 02:30:00 7.7 C 95 % 6.95 C
896 12-04-2018 02:35:00 7.7 C 95 % 6.95 C
897 12-04-2018 02:40:00 7.5 C 95 % 6.75 C
898 12-04-2018 02:45:00 7.4 C 95 % 6.65 C
899 12-04-2018 02:50:00 7.4 C 95 % 6.65 C
900 12-04-2018 02:55:00 7.3 C 95 % 6.55 C
Sensor: Nr:Datum:Temp:Feuchte:Taupunkt:
Aussen-T/F 901 12-04-2018 03:00:00 7.3 C 95 % 6.55 C
902 12-04-2018 03:05:00 7.3 C 95 % 6.55 C
903 12-04-2018 03:10:00 7.2 C 95 % 6.45 C
904 12-04-2018 03:15:00 7.2 C 95 % 6.45 C
905 12-04-2018 03:20:00 7.3 C 95 % 6.55 C
906 12-04-2018 03:25:00 7.2 C 95 % 6.45 C
907 12-04-2018 03:30:00 7.2 C 95 % 6.45 C
908 12-04-2018 03:35:00 7.1 C 95 % 6.35 C
909 12-04-2018 03:40:00 7.1 C 95 % 6.35 C
910 12-04-2018 03:45:00 7.1 C 95 % 6.35 C
911 12-04-2018 03:50:00 7 C 95 % 6.26 C
912 12-04-2018 03:55:00 7.1 C 95 % 6.35 C
913 12-04-2018 04:00:00 7 C 95 % 6.26 C
914 12-04-2018 04:05:00 6.9 C 95 % 6.16 C
915 12-04-2018 04:10:00 6.9 C 95 % 6.16 C
916 12-04-2018 04:15:00 6.8 C 95 % 6.06 C
917 12-04-2018 04:20:00 6.7 C 95 % 5.96 C
918 12-04-2018 04:25:00 6.7 C 95 % 5.96 C
919 12-04-2018 04:30:00 6.8 C 96 % 6.21 C
920 12-04-2018 04:35:00 6.8 C 96 % 6.21 C
921 12-04-2018 04:40:00 6.8 C 96 % 6.21 C
922 12-04-2018 04:45:00 6.7 C 96 % 6.11 C
923 12-04-2018 04:50:00 6.7 C 96 % 6.11 C
924 12-04-2018 04:55:00 6.7 C 96 % 6.11 C
925 12-04-2018 05:00:00 6.8 C 96 % 6.21 C
Sensor: Nr:Datum:Temp:Feuchte:Taupunkt:
Aussen-T/F 926 12-04-2018 05:05:00 6.9 C 96 % 6.31 C
927 12-04-2018 05:10:00 7.1 C 96 % 6.51 C
928 12-04-2018 05:15:00 7.1 C 96 % 6.51 C
929 12-04-2018 05:20:00 7.2 C 96 % 6.61 C
930 12-04-2018 05:25:00 7.2 C 96 % 6.61 C
931 12-04-2018 05:30:00 7.3 C 96 % 6.71 C
932 12-04-2018 05:35:00 7.3 C 96 % 6.71 C
933 12-04-2018 05:40:00 7.4 C 96 % 6.8 C
934 12-04-2018 05:45:00 7.4 C 96 % 6.8 C
935 12-04-2018 05:50:00 7.4 C 96 % 6.8 C
936 12-04-2018 05:55:00 7.5 C 96 % 6.9 C
937 12-04-2018 06:00:00 7.5 C 96 % 6.9 C
938 12-04-2018 06:05:00 7.6 C 96 % 7 C
939 12-04-2018 06:10:00 7.6 C 96 % 7 C
940 12-04-2018 06:15:00 7.6 C 96 % 7 C
941 12-04-2018 06:20:00 7.7 C 96 % 7.1 C
942 12-04-2018 06:25:00 7.8 C 97 % 7.35 C
943 12-04-2018 06:30:00 7.9 C 96 % 7.3 C
944 12-04-2018 06:35:00 7.9 C 97 % 7.45 C
945 12-04-2018 06:40:00 8.1 C 97 % 7.65 C
946 12-04-2018 06:45:00 8.2 C 97 % 7.75 C
947 12-04-2018 06:50:00 8.3 C 97 % 7.85 C
948 12-04-2018 06:55:00 8.4 C 97 % 7.95 C
949 12-04-2018 07:00:00 8.5 C 97 % 8.05 C
950 12-04-2018 07:05:00 8.6 C 97 % 8.15 C
Sensor: Nr:Datum:Temp:Feuchte:Taupunkt:
Aussen-T/F 951 12-04-2018 07:10:00 8.6 C 97 % 8.15 C
952 12-04-2018 07:15:00 8.6 C 96 % 8 C
953 12-04-2018 07:20:00 8.6 C 96 % 8 C
954 12-04-2018 07:25:00 8.6 C 96 % 8 C
955 12-04-2018 07:30:00 8.6 C 96 % 8 C
956 12-04-2018 07:35:00 8.4 C 96 % 7.8 C
957 12-04-2018 07:40:00 8.4 C 96 % 7.8 C
958 12-04-2018 07:45:00 8.4 C 96 % 7.8 C
959 12-04-2018 07:50:00 8.4 C 96 % 7.8 C
960 12-04-2018 07:55:00 8.4 C 96 % 7.8 C
961 12-04-2018 08:00:00 8.4 C 96 % 7.8 C
962 12-04-2018 08:05:00 8.4 C 96 % 7.8 C
963 12-04-2018 08:10:00 8.5 C 96 % 7.9 C
964 12-04-2018 08:15:00 8.6 C 96 % 8 C
965 12-04-2018 08:20:00 8.7 C 97 % 8.25 C
966 12-04-2018 08:25:00 8.8 C 97 % 8.35 C
967 12-04-2018 08:30:00 8.9 C 97 % 8.45 C
968 12-04-2018 08:35:00 9 C 97 % 8.55 C
969 12-04-2018 08:40:00 9.2 C 97 % 8.75 C
970 12-04-2018 08:45:00 9.3 C 97 % 8.85 C
971 12-04-2018 08:50:00 9.3 C 97 % 8.85 C
972 12-04-2018 08:55:00 9.4 C 97 % 8.95 C
973 12-04-2018 09:00:00 9.4 C 97 % 8.95 C
974 12-04-2018 09:05:00 9.4 C 97 % 8.95 C
975 12-04-2018 09:10:00 9.4 C 96 % 8.8 C
Sensor: Nr:Datum:Temp:Feuchte:Taupunkt:
Aussen-T/F 976 12-04-2018 09:15:00 9.4 C 96 % 8.8 C
977 12-04-2018 09:20:00 9.4 C 96 % 8.8 C
978 12-04-2018 09:25:00 9.6 C 96 % 8.99 C
979 12-04-2018 09:30:00 9.7 C 97 % 9.25 C
980 12-04-2018 09:35:00 9.8 C 96 % 9.19 C
981 12-04-2018 09:40:00 9.9 C 96 % 9.29 C
982 12-04-2018 09:45:00 10 C 96 % 9.39 C
983 12-04-2018 09:50:00 10.1 C 95 % 9.34 C
984 12-04-2018 09:55:00 10.2 C 95 % 9.44 C
985 12-04-2018 10:00:00 10.2 C 95 % 9.44 C
986 12-04-2018 10:05:00 10.4 C 95 % 9.63 C
987 12-04-2018 10:10:00 10.7 C 95 % 9.93 C
988 12-04-2018 10:15:00 10.9 C 95 % 10.13 C
989 12-04-2018 10:20:00 11 C 94 % 10.07 C
990 12-04-2018 10:25:00 11.2 C 94 % 10.27 C
991 12-04-2018 10:30:00 11.4 C 94 % 10.47 C
992 12-04-2018 10:35:00 11.7 C 93 % 10.61 C
993 12-04-2018 10:40:00 11.9 C 92 % 10.64 C
994 12-04-2018 10:45:00 12.1 C 92 % 10.84 C
995 12-04-2018 10:50:00 12.3 C 90 % 10.71 C
996 12-04-2018 10:55:00 12.6 C 90 % 11 C
997 12-04-2018 11:00:00 12.8 C 89 % 11.03 C
998 12-04-2018 11:05:00 13.1 C 87 % 10.99 C
999 12-04-2018 11:10:00 13.3 C 87 % 11.18 C
1000 12-04-2018 11:15:00 13.5 C 85 % 11.03 C
Sensor: Nr:Datum:Temp:Feuchte:Taupunkt:
Aussen-T/F 1001 12-04-2018 11:20:00 13.7 C 85 % 11.23 C
1002 12-04-2018 11:25:00 13.9 C 85 % 11.42 C
1003 12-04-2018 11:30:00 14.1 C 83 % 11.26 C
1004 12-04-2018 11:35:00 14.3 C 84 % 11.64 C
1005 12-04-2018 11:40:00 14.6 C 82 % 11.56 C
1006 12-04-2018 11:45:00 14.8 C 82 % 11.76 C
1007 12-04-2018 11:50:00 15.1 C 81 % 11.87 C
1008 12-04-2018 11:55:00 15.3 C 80 % 11.87 C
1009 12-04-2018 12:00:00 15.4 C 79 % 11.78 C
1010 12-04-2018 12:05:00 15.7 C 78 % 11.88 C
1011 12-04-2018 12:10:00 16.1 C 77 % 12.07 C
1012 12-04-2018 12:15:00 16.3 C 75 % 11.86 C
1013 12-04-2018 12:20:00 16.6 C 73 % 11.74 C
1014 12-04-2018 12:25:00 16.8 C 73 % 11.94 C
1015 12-04-2018 12:30:00 16.9 C 72 % 11.82 C
1016 12-04-2018 12:35:00 16.9 C 72 % 11.82 C
1017 12-04-2018 12:40:00 17.1 C 72 % 12.02 C
1018 12-04-2018 12:45:00 17.2 C 72 % 12.11 C
1019 12-04-2018 12:50:00 17.4 C 71 % 12.09 C
1020 12-04-2018 12:55:00 17.6 C 71 % 12.28 C
1021 12-04-2018 13:00:00 17.8 C 72 % 12.69 C
1022 12-04-2018 13:05:00 18 C 70 % 12.45 C
1023 12-04-2018 13:10:00 18.1 C 70 % 12.55 C
1024 12-04-2018 13:15:00 18.1 C 70 % 12.55 C
1025 12-04-2018 13:20:00 18.2 C 69 % 12.42 C
Sensor: Nr:Datum:Temp:Feuchte:Taupunkt:
Aussen-T/F 1026 12-04-2018 13:25:00 18.2 C 69 % 12.42 C
1027 12-04-2018 13:30:00 18.4 C 69 % 12.61 C
1028 12-04-2018 13:35:00 18.6 C 64 % 11.66 C
1029 12-04-2018 13:40:00 18.7 C 63 % 11.52 C
1030 12-04-2018 13:45:00 18.8 C 62 % 11.37 C
1031 12-04-2018 13:50:00 19 C 65 % 12.28 C
1032 12-04-2018 13:55:00 19.2 C 61 % 11.5 C
1033 12-04-2018 14:00:00 19.4 C 62 % 11.94 C
1034 12-04-2018 14:05:00 19.6 C 60 % 11.63 C
1035 12-04-2018 14:10:00 19.6 C 59 % 11.37 C
1036 12-04-2018 14:15:00 19.6 C 59 % 11.37 C
1037 12-04-2018 14:20:00 19.6 C 59 % 11.37 C
1038 12-04-2018 14:25:00 19.7 C 59 % 11.47 C
1039 12-04-2018 14:30:00 19.8 C 60 % 11.82 C
1040 12-04-2018 14:35:00 19.8 C 59 % 11.56 C
1041 12-04-2018 14:40:00 19.9 C 59 % 11.66 C
1042 12-04-2018 14:45:00 19.9 C 56 % 10.87 C
1043 12-04-2018 14:50:00 19.9 C 59 % 11.66 C
1044 12-04-2018 14:55:00 20.1 C 58 % 11.58 C
1045 12-04-2018 15:00:00 20.2 C 58 % 11.68 C
1046 12-04-2018 15:05:00 20.3 C 59 % 12.03 C
1047 12-04-2018 15:10:00 20.4 C 55 % 11.06 C
1048 12-04-2018 15:15:00 20.5 C 57 % 11.7 C
1049 12-04-2018 15:20:00 20.5 C 55 % 11.16 C
1050 12-04-2018 15:25:00 20.4 C 55 % 11.06 C
Sensor: Nr:Datum:Temp:Feuchte:Taupunkt:
Aussen-T/F 1051 12-04-2018 15:30:00 20.2 C 56 % 11.15 C
1052 12-04-2018 15:35:00 20.1 C 56 % 11.06 C
1053 12-04-2018 15:40:00 20.1 C 59 % 11.84 C
1054 12-04-2018 15:45:00 20 C 57 % 11.23 C
1055 12-04-2018 15:50:00 19.9 C 57 % 11.14 C
1056 12-04-2018 15:55:00 19.8 C 59 % 11.56 C
1057 12-04-2018 16:00:00 19.6 C 59 % 11.37 C
1058 12-04-2018 16:05:00 19.5 C 58 % 11.02 C
1059 12-04-2018 16:10:00 19.5 C 60 % 11.53 C
1060 12-04-2018 16:15:00 19.6 C 60 % 11.63 C
1061 12-04-2018 16:20:00 19.8 C 59 % 11.56 C
1062 12-04-2018 16:25:00 19.9 C 58 % 11.4 C
1063 12-04-2018 16:30:00 19.9 C 59 % 11.66 C
1064 12-04-2018 16:35:00 19.8 C 57 % 11.04 C
1065 12-04-2018 16:40:00 19.7 C 58 % 11.21 C
1066 12-04-2018 16:45:00 19.8 C 59 % 11.56 C
1067 12-04-2018 16:50:00 20.1 C 57 % 11.32 C
1068 12-04-2018 16:55:00 20.4 C 55 % 11.06 C
1069 12-04-2018 17:00:00 20.7 C 54 % 11.07 C
1070 12-04-2018 17:05:00 20.7 C 55 % 11.34 C
1071 12-04-2018 17:10:00 20.7 C 53 % 10.78 C
1072 12-04-2018 17:15:00 20.7 C 52 % 10.5 C
1073 12-04-2018 17:20:00 20.6 C 53 % 10.69 C
1074 12-04-2018 17:25:00 20.7 C 52 % 10.5 C
1075 12-04-2018 17:30:00 20.9 C 53 % 10.97 C
Sensor: Nr:Datum:Temp:Feuchte:Taupunkt:
Aussen-T/F 1076 12-04-2018 17:35:00 21.3 C 51 % 10.76 C
1077 12-04-2018 17:40:00 21.5 C 52 % 11.24 C
1078 12-04-2018 17:45:00 21.6 C 50 % 10.74 C
1079 12-04-2018 17:50:00 21.5 C 49 % 10.34 C
1080 12-04-2018 17:55:00 21.3 C 51 % 10.76 C
1081 12-04-2018 18:00:00 21.1 C 51 % 10.58 C
1082 12-04-2018 18:05:00 21.2 C 51 % 10.67 C
1083 12-04-2018 18:10:00 21.5 C 50 % 10.65 C
1084 12-04-2018 18:15:00 21.9 C 50 % 11.01 C
1085 12-04-2018 18:20:00 21.8 C 48 % 10.31 C
1086 12-04-2018 18:25:00 21.3 C 49 % 10.16 C
1087 12-04-2018 18:30:00 20.9 C 50 % 10.1 C
1088 12-04-2018 18:35:00 20.5 C 50 % 9.73 C
1089 12-04-2018 18:40:00 20.5 C 50 % 9.73 C
1090 12-04-2018 18:45:00 20.7 C 49 % 9.61 C
1091 12-04-2018 18:50:00 20.8 C 49 % 9.7 C
1092 12-04-2018 18:55:00 20.9 C 49 % 9.79 C
1093 12-04-2018 19:00:00 20.9 C 50 % 10.1 C
1094 12-04-2018 19:05:00 20.7 C 50 % 9.91 C
1095 12-04-2018 19:10:00 20.4 C 54 % 10.79 C
1096 12-04-2018 19:15:00 20.1 C 58 % 11.58 C
1097 12-04-2018 19:20:00 19.6 C 59 % 11.37 C
1098 12-04-2018 19:25:00 19.2 C 60 % 11.25 C
1099 12-04-2018 19:30:00 18.7 C 62 % 11.28 C
1100 12-04-2018 19:35:00 18.3 C 63 % 11.14 C
Sensor: Nr:Datum:Temp:Feuchte:Taupunkt:
Aussen-T/F 1101 12-04-2018 19:40:00 17.8 C 65 % 11.14 C
1102 12-04-2018 19:45:00 17.5 C 66 % 11.08 C
1103 12-04-2018 19:50:00 17.2 C 67 % 11.02 C
1104 12-04-2018 19:55:00 16.9 C 69 % 11.18 C
1105 12-04-2018 20:00:00 16.6 C 70 % 11.11 C
1106 12-04-2018 20:05:00 16.3 C 71 % 11.04 C
1107 12-04-2018 20:10:00 16.1 C 72 % 11.06 C
1108 12-04-2018 20:15:00 15.8 C 73 % 10.97 C
1109 12-04-2018 20:20:00 15.7 C 73 % 10.88 C
1110 12-04-2018 20:25:00 15.5 C 73 % 10.69 C
1111 12-04-2018 20:30:00 15.3 C 73 % 10.49 C
1112 12-04-2018 20:35:00 15.1 C 74 % 10.5 C
1113 12-04-2018 20:40:00 14.9 C 75 % 10.51 C
1114 12-04-2018 20:45:00 14.7 C 75 % 10.32 C
1115 12-04-2018 20:50:00 14.5 C 76 % 10.32 C
1116 12-04-2018 20:55:00 14.3 C 77 % 10.33 C
1117 12-04-2018 21:00:00 14.2 C 77 % 10.23 C
1118 12-04-2018 21:05:00 14 C 77 % 10.04 C
1119 12-04-2018 21:10:00 13.8 C 77 % 9.84 C
1120 12-04-2018 21:15:00 13.7 C 78 % 9.94 C
1121 12-04-2018 21:20:00 13.6 C 78 % 9.84 C
1122 12-04-2018 21:25:00 13.5 C 78 % 9.74 C
1123 12-04-2018 21:30:00 13.4 C 78 % 9.65 C
1124 12-04-2018 21:35:00 13.3 C 79 % 9.74 C
1125 12-04-2018 21:40:00 13.2 C 79 % 9.64 C
Sensor: Nr:Datum:Temp:Feuchte:Taupunkt:
Aussen-T/F 1126 12-04-2018 21:45:00 13.2 C 80 % 9.83 C
1127 12-04-2018 21:50:00 13.1 C 80 % 9.73 C
1128 12-04-2018 21:55:00 12.9 C 80 % 9.54 C
1129 12-04-2018 22:00:00 12.7 C 81 % 9.53 C
1130 12-04-2018 22:05:00 12.6 C 82 % 9.61 C
1131 12-04-2018 22:10:00 12.3 C 82 % 9.32 C
1132 12-04-2018 22:15:00 12.2 C 83 % 9.4 C
1133 12-04-2018 22:20:00 12.1 C 84 % 9.48 C
1134 12-04-2018 22:25:00 11.9 C 84 % 9.29 C
1135 12-04-2018 22:30:00 11.8 C 84 % 9.19 C
1136 12-04-2018 22:35:00 11.8 C 84 % 9.19 C
1137 12-04-2018 22:40:00 11.7 C 84 % 9.09 C
1138 12-04-2018 22:45:00 11.5 C 84 % 8.89 C
1139 12-04-2018 22:50:00 11.4 C 85 % 8.97 C
1140 12-04-2018 22:55:00 11.3 C 86 % 9.05 C
1141 12-04-2018 23:00:00 11.3 C 87 % 9.22 C
1142 12-04-2018 23:05:00 11.3 C 86 % 9.05 C
1143 12-04-2018 23:10:00 11.1 C 87 % 9.02 C
1144 12-04-2018 23:15:00 11 C 87 % 8.92 C
1145 12-04-2018 23:20:00 10.9 C 88 % 8.99 C
1146 12-04-2018 23:25:00 10.9 C 87 % 8.82 C
1147 12-04-2018 23:30:00 10.8 C 88 % 8.89 C
1148 12-04-2018 23:35:00 10.8 C 88 % 8.89 C
1149 12-04-2018 23:40:00 10.7 C 88 % 8.8 C
1150 12-04-2018 23:45:00 10.6 C 88 % 8.7 C
Sensor: Nr:Datum:Temp:Feuchte:Taupunkt:
Aussen-T/F 1151 12-04-2018 23:50:00 10.5 C 88 % 8.6 C
1152 12-04-2018 23:55:00 10.5 C 88 % 8.6 C
1153 13-04-2018 00:00:00 10.4 C 88 % 8.5 C
1154 13-04-2018 00:05:00 10.3 C 89 % 8.57 C
1155 13-04-2018 00:10:00 10.2 C 88 % 8.3 C
1156 13-04-2018 00:15:00 10.1 C 89 % 8.37 C
1157 13-04-2018 00:20:00 10 C 89 % 8.27 C
1158 13-04-2018 00:25:00 9.8 C 89 % 8.08 C
1159 13-04-2018 00:30:00 9.8 C 90 % 8.24 C
1160 13-04-2018 00:35:00 9.7 C 90 % 8.14 C
1161 13-04-2018 00:40:00 9.7 C 90 % 8.14 C
1162 13-04-2018 00:45:00 9.7 C 90 % 8.14 C
1163 13-04-2018 00:50:00 9.6 C 90 % 8.04 C
1164 13-04-2018 00:55:00 9.5 C 90 % 7.94 C
1165 13-04-2018 01:00:00 9.3 C 90 % 7.75 C
1166 13-04-2018 01:05:00 9.2 C 90 % 7.65 C
1167 13-04-2018 01:10:00 9.2 C 91 % 7.81 C
1168 13-04-2018 01:15:00 9.2 C 91 % 7.81 C
1169 13-04-2018 01:20:00 9.2 C 91 % 7.81 C
1170 13-04-2018 01:25:00 9.2 C 92 % 7.97 C
1171 13-04-2018 01:30:00 9.3 C 92 % 8.07 C
1172 13-04-2018 01:35:00 9.3 C 92 % 8.07 C
1173 13-04-2018 01:40:00 9.2 C 92 % 7.97 C
1174 13-04-2018 01:45:00 9.3 C 92 % 8.07 C
1175 13-04-2018 01:50:00 9.2 C 92 % 7.97 C
Sensor: Nr:Datum:Temp:Feuchte:Taupunkt:
Aussen-T/F 1176 13-04-2018 01:55:00 9.2 C 91 % 7.81 C
1177 13-04-2018 02:00:00 9.1 C 92 % 7.87 C
1178 13-04-2018 02:05:00 9.1 C 92 % 7.87 C
1179 13-04-2018 02:10:00 9 C 91 % 7.61 C
1180 13-04-2018 02:15:00 8.9 C 92 % 7.67 C
1181 13-04-2018 02:20:00 8.7 C 91 % 7.32 C
1182 13-04-2018 02:25:00 8.7 C 92 % 7.47 C
1183 13-04-2018 02:30:00 8.7 C 92 % 7.47 C
1184 13-04-2018 02:35:00 8.6 C 92 % 7.38 C
1185 13-04-2018 02:40:00 8.6 C 92 % 7.38 C
1186 13-04-2018 02:45:00 8.4 C 92 % 7.18 C
1187 13-04-2018 02:50:00 8.3 C 92 % 7.08 C
1188 13-04-2018 02:55:00 8.3 C 92 % 7.08 C
1189 13-04-2018 03:00:00 8.2 C 93 % 7.14 C
1190 13-04-2018 03:05:00 8.1 C 93 % 7.04 C
1191 13-04-2018 03:10:00 8.1 C 93 % 7.04 C
1192 13-04-2018 03:15:00 8 C 93 % 6.94 C
1193 13-04-2018 03:20:00 7.9 C 93 % 6.84 C
1194 13-04-2018 03:25:00 8 C 93 % 6.94 C
1195 13-04-2018 03:30:00 8.1 C 94 % 7.19 C
1196 13-04-2018 03:35:00 8.1 C 94 % 7.19 C
1197 13-04-2018 03:40:00 8.1 C 93 % 7.04 C
1198 13-04-2018 03:45:00 7.8 C 93 % 6.74 C
1199 13-04-2018 03:50:00 7.8 C 93 % 6.74 C
1200 13-04-2018 03:55:00 7.8 C 94 % 6.9 C
Sensor: Nr:Datum:Temp:Feuchte:Taupunkt:
Aussen-T/F 1201 13-04-2018 04:00:00 7.7 C 94 % 6.8 C
1202 13-04-2018 04:05:00 7.6 C 93 % 6.54 C
1203 13-04-2018 04:10:00 7.4 C 93 % 6.34 C
1204 13-04-2018 04:15:00 7.3 C 93 % 6.25 C
1205 13-04-2018 04:20:00 7.3 C 94 % 6.4 C
1206 13-04-2018 04:25:00 7.3 C 94 % 6.4 C
1207 13-04-2018 04:30:00 7.2 C 94 % 6.3 C
1208 13-04-2018 04:35:00 7.2 C 94 % 6.3 C
1209 13-04-2018 04:40:00 7.1 C 94 % 6.2 C
1210 13-04-2018 04:45:00 6.9 C 94 % 6 C
1211 13-04-2018 04:50:00 6.8 C 94 % 5.9 C
1212 13-04-2018 04:55:00 6.8 C 94 % 5.9 C
1213 13-04-2018 05:00:00 6.8 C 94 % 5.9 C
1214 13-04-2018 05:05:00 6.8 C 94 % 5.9 C
1215 13-04-2018 05:10:00 6.8 C 95 % 6.06 C
1216 13-04-2018 05:15:00 6.9 C 95 % 6.16 C
1217 13-04-2018 05:20:00 6.9 C 95 % 6.16 C
1218 13-04-2018 05:25:00 6.9 C 95 % 6.16 C
1219 13-04-2018 05:30:00 6.8 C 95 % 6.06 C
1220 13-04-2018 05:35:00 6.8 C 95 % 6.06 C
1221 13-04-2018 05:40:00 6.7 C 95 % 5.96 C
1222 13-04-2018 05:45:00 6.7 C 95 % 5.96 C
1223 13-04-2018 05:50:00 6.8 C 95 % 6.06 C
1224 13-04-2018 05:55:00 6.7 C 95 % 5.96 C
1225 13-04-2018 06:00:00 6.7 C 95 % 5.96 C
Sensor: Nr:Datum:Temp:Feuchte:Taupunkt:
Aussen-T/F 1226 13-04-2018 06:05:00 6.7 C 95 % 5.96 C
1227 13-04-2018 06:10:00 6.7 C 95 % 5.96 C
1228 13-04-2018 06:15:00 6.7 C 95 % 5.96 C
1229 13-04-2018 06:20:00 6.7 C 95 % 5.96 C
1230 13-04-2018 06:25:00 6.6 C 95 % 5.86 C
1231 13-04-2018 06:30:00 6.6 C 95 % 5.86 C
1232 13-04-2018 06:35:00 6.6 C 95 % 5.86 C
1233 13-04-2018 06:40:00 6.6 C 95 % 5.86 C
1234 13-04-2018 06:45:00 6.6 C 95 % 5.86 C
1235 13-04-2018 06:50:00 6.6 C 95 % 5.86 C
1236 13-04-2018 06:55:00 6.5 C 95 % 5.76 C
1237 13-04-2018 07:00:00 6.4 C 95 % 5.66 C
1238 13-04-2018 07:05:00 6.4 C 95 % 5.66 C
1239 13-04-2018 07:10:00 6.4 C 95 % 5.66 C
1240 13-04-2018 07:15:00 6.4 C 95 % 5.66 C
1241 13-04-2018 07:20:00 6.3 C 95 % 5.56 C
1242 13-04-2018 07:25:00 6.3 C 95 % 5.56 C
1243 13-04-2018 07:30:00 6.4 C 95 % 5.66 C
1244 13-04-2018 07:35:00 6.4 C 95 % 5.66 C
1245 13-04-2018 07:40:00 6.5 C 96 % 5.91 C
1246 13-04-2018 07:45:00 6.6 C 96 % 6.01 C
1247 13-04-2018 07:50:00 6.7 C 96 % 6.11 C
1248 13-04-2018 07:55:00 6.8 C 96 % 6.21 C
1249 13-04-2018 08:00:00 6.9 C 96 % 6.31 C
1250 13-04-2018 08:05:00 7 C 96 % 6.41 C
Sensor: Nr:Datum:Temp:Feuchte:Taupunkt:
Aussen-T/F 1251 13-04-2018 08:10:00 7.1 C 96 % 6.51 C
1252 13-04-2018 08:15:00 7.2 C 96 % 6.61 C
1253 13-04-2018 08:20:00 7.2 C 96 % 6.61 C
1254 13-04-2018 08:25:00 7.2 C 96 % 6.61 C
1255 13-04-2018 08:30:00 7.3 C 96 % 6.71 C
1256 13-04-2018 08:35:00 7.3 C 95 % 6.55 C
1257 13-04-2018 08:40:00 7.4 C 96 % 6.8 C
1258 13-04-2018 08:45:00 7.5 C 95 % 6.75 C
1259 13-04-2018 08:50:00 7.6 C 95 % 6.85 C
1260 13-04-2018 08:55:00 7.8 C 95 % 7.05 C
1261 13-04-2018 09:00:00 7.8 C 95 % 7.05 C
1262 13-04-2018 09:05:00 7.9 C 95 % 7.15 C
1263 13-04-2018 09:10:00 7.9 C 95 % 7.15 C
1264 13-04-2018 09:15:00 8 C 94 % 7.09 C
1265 13-04-2018 09:20:00 8.1 C 94 % 7.19 C
1266 13-04-2018 09:25:00 8.1 C 94 % 7.19 C
1267 13-04-2018 09:30:00 8.2 C 94 % 7.29 C
1268 13-04-2018 09:35:00 8.3 C 94 % 7.39 C
1269 13-04-2018 09:40:00 8.4 C 94 % 7.49 C
1270 13-04-2018 09:45:00 8.6 C 93 % 7.53 C
1271 13-04-2018 09:50:00 8.7 C 93 % 7.63 C
1272 13-04-2018 09:55:00 8.8 C 92 % 7.57 C
1273 13-04-2018 10:00:00 8.9 C 92 % 7.67 C
1274 13-04-2018 10:05:00 9.1 C 92 % 7.87 C
1275 13-04-2018 10:10:00 9.2 C 92 % 7.97 C
Sensor: Nr:Datum:Temp:Feuchte:Taupunkt:
Aussen-T/F 1276 13-04-2018 10:15:00 9.4 C 92 % 8.17 C
1277 13-04-2018 10:20:00 9.6 C 92 % 8.37 C
1278 13-04-2018 10:25:00 9.7 C 91 % 8.3 C
1279 13-04-2018 10:30:00 9.8 C 90 % 8.24 C
1280 13-04-2018 10:35:00 10 C 89 % 8.27 C
1281 13-04-2018 10:40:00 10.1 C 89 % 8.37 C
1282 13-04-2018 10:45:00 10.2 C 89 % 8.47 C
1283 13-04-2018 10:50:00 10.3 C 89 % 8.57 C
1284 13-04-2018 10:55:00 10.3 C 89 % 8.57 C
1285 13-04-2018 11:00:00 10.4 C 88 % 8.5 C
1286 13-04-2018 11:05:00 10.4 C 88 % 8.5 C
1287 13-04-2018 11:10:00 10.5 C 88 % 8.6 C
1288 13-04-2018 11:15:00 10.6 C 89 % 8.86 C
1289 13-04-2018 11:20:00 10.7 C 88 % 8.8 C
1290 13-04-2018 11:25:00 10.7 C 88 % 8.8 C
1291 13-04-2018 11:30:00 10.8 C 88 % 8.89 C
1292 13-04-2018 11:35:00 10.9 C 88 % 8.99 C
1293 13-04-2018 11:40:00 10.9 C 88 % 8.99 C
1294 13-04-2018 11:45:00 11 C 87 % 8.92 C
1295 13-04-2018 11:50:00 11.1 C 87 % 9.02 C
1296 13-04-2018 11:55:00 11.1 C 87 % 9.02 C
1297 13-04-2018 12:00:00 11.2 C 87 % 9.12 C
1298 13-04-2018 12:05:00 11.2 C 87 % 9.12 C
1299 13-04-2018 12:10:00 11.2 C 87 % 9.12 C
1300 13-04-2018 12:15:00 11.2 C 87 % 9.12 C
Sensor: Nr:Datum:Temp:Feuchte:Taupunkt:
Aussen-T/F 1301 13-04-2018 12:20:00 11.2 C 88 % 9.29 C
1302 13-04-2018 12:25:00 11.3 C 87 % 9.22 C
1303 13-04-2018 12:30:00 11.3 C 87 % 9.22 C
1304 13-04-2018 12:35:00 11.4 C 86 % 9.14 C
1305 13-04-2018 12:40:00 11.5 C 85 % 9.07 C
1306 13-04-2018 12:45:00 11.6 C 84 % 8.99 C
1307 13-04-2018 12:50:00 11.7 C 84 % 9.09 C
1308 13-04-2018 12:55:00 11.8 C 84 % 9.19 C
1309 13-04-2018 13:00:00 11.9 C 83 % 9.11 C
1310 13-04-2018 13:05:00 12.1 C 83 % 9.3 C
1311 13-04-2018 13:10:00 12.1 C 82 % 9.12 C
1312 13-04-2018 13:15:00 12.2 C 82 % 9.22 C
1313 13-04-2018 13:20:00 12.3 C 82 % 9.32 C
1314 13-04-2018 13:25:00 12.3 C 83 % 9.5 C
1315 13-04-2018 13:30:00 12.3 C 81 % 9.14 C
1316 13-04-2018 13:35:00 12.4 C 81 % 9.23 C
1317 13-04-2018 13:40:00 12.5 C 80 % 9.15 C
1318 13-04-2018 13:45:00 12.6 C 79 % 9.06 C
1319 13-04-2018 13:50:00 12.7 C 79 % 9.16 C
1320 13-04-2018 13:55:00 12.8 C 78 % 9.06 C
1321 13-04-2018 14:00:00 12.9 C 77 % 8.97 C
1322 13-04-2018 14:05:00 13.1 C 77 % 9.16 C
1323 13-04-2018 14:10:00 13.3 C 75 % 8.97 C
1324 13-04-2018 14:15:00 13.4 C 75 % 9.06 C
1325 13-04-2018 14:20:00 13.6 C 74 % 9.06 C
Sensor: Nr:Datum:Temp:Feuchte:Taupunkt:
Aussen-T/F 1326 13-04-2018 14:25:00 13.7 C 73 % 8.95 C
1327 13-04-2018 14:30:00 13.8 C 73 % 9.05 C
1328 13-04-2018 14:35:00 13.8 C 72 % 8.85 C
1329 13-04-2018 14:40:00 13.9 C 72 % 8.94 C
1330 13-04-2018 14:45:00 14 C 71 % 8.83 C
1331 13-04-2018 14:50:00 14 C 72 % 9.04 C
1332 13-04-2018 14:55:00 14.1 C 72 % 9.13 C
1333 13-04-2018 15:00:00 14.1 C 72 % 9.13 C
1334 13-04-2018 15:05:00 14.1 C 72 % 9.13 C
1335 13-04-2018 15:10:00 14.2 C 73 % 9.43 C
1336 13-04-2018 15:15:00 14.2 C 72 % 9.23 C
1337 13-04-2018 15:20:00 14.2 C 72 % 9.23 C
1338 13-04-2018 15:25:00 14.1 C 72 % 9.13 C
1339 13-04-2018 15:30:00 14.1 C 72 % 9.13 C
1340 13-04-2018 15:35:00 14.1 C 72 % 9.13 C
1341 13-04-2018 15:40:00 14 C 73 % 9.24 C
1342 13-04-2018 15:45:00 13.9 C 73 % 9.15 C
1343 13-04-2018 15:50:00 13.9 C 73 % 9.15 C
1344 13-04-2018 15:55:00 13.9 C 74 % 9.35 C
1345 13-04-2018 16:00:00 13.9 C 74 % 9.35 C
1346 13-04-2018 16:05:00 13.9 C 74 % 9.35 C
1347 13-04-2018 16:10:00 13.8 C 74 % 9.25 C
1348 13-04-2018 16:15:00 13.8 C 74 % 9.25 C
1349 13-04-2018 16:20:00 13.8 C 74 % 9.25 C
1350 13-04-2018 16:25:00 13.8 C 75 % 9.45 C
Sensor: Nr:Datum:Temp:Feuchte:Taupunkt:
Aussen-T/F 1351 13-04-2018 16:30:00 13.8 C 75 % 9.45 C
1352 13-04-2018 16:35:00 13.8 C 75 % 9.45 C
1353 13-04-2018 16:40:00 13.8 C 74 % 9.25 C
1354 13-04-2018 16:45:00 13.9 C 74 % 9.35 C
1355 13-04-2018 16:50:00 13.9 C 74 % 9.35 C
1356 13-04-2018 16:55:00 14 C 74 % 9.44 C
1357 13-04-2018 17:00:00 14.1 C 74 % 9.54 C
1358 13-04-2018 17:05:00 14.2 C 74 % 9.64 C
1359 13-04-2018 17:10:00 14.2 C 73 % 9.43 C
1360 13-04-2018 17:15:00 14.2 C 75 % 9.84 C
1361 13-04-2018 17:20:00 14.2 C 75 % 9.84 C
1362 13-04-2018 17:25:00 14.2 C 76 % 10.03 C
1363 13-04-2018 17:30:00 14.1 C 77 % 10.13 C
1364 13-04-2018 17:35:00 14.1 C 77 % 10.13 C
1365 13-04-2018 17:40:00 14 C 77 % 10.04 C
1366 13-04-2018 17:45:00 13.9 C 77 % 9.94 C
1367 13-04-2018 17:50:00 13.8 C 76 % 9.65 C
1368 13-04-2018 17:55:00 13.7 C 77 % 9.75 C
1369 13-04-2018 18:00:00 13.7 C 77 % 9.75 C
1370 13-04-2018 18:05:00 13.6 C 77 % 9.65 C
1371 13-04-2018 18:10:00 13.6 C 79 % 10.03 C
1372 13-04-2018 18:15:00 13.5 C 78 % 9.74 C
1373 13-04-2018 18:20:00 13.5 C 79 % 9.93 C
1374 13-04-2018 18:25:00 13.4 C 79 % 9.84 C
1375 13-04-2018 18:30:00 13.4 C 79 % 9.84 C
Sensor: Nr:Datum:Temp:Feuchte:Taupunkt:
Aussen-T/F 1376 13-04-2018 18:35:00 13.3 C 79 % 9.74 C
1377 13-04-2018 18:40:00 13.3 C 80 % 9.93 C
1378 13-04-2018 18:45:00 13.2 C 81 % 10.01 C
1379 13-04-2018 18:50:00 13.2 C 82 % 10.2 C
1380 13-04-2018 18:55:00 13.1 C 83 % 10.28 C
1381 13-04-2018 19:00:00 13 C 85 % 10.54 C
1382 13-04-2018 19:05:00 12.8 C 86 % 10.52 C
1383 13-04-2018 19:10:00 12.6 C 87 % 10.5 C
1384 13-04-2018 19:15:00 12.4 C 88 % 10.47 C
1385 13-04-2018 19:20:00 12.2 C 88 % 10.27 C
1386 13-04-2018 19:25:00 12.2 C 89 % 10.44 C
1387 13-04-2018 19:30:00 12.1 C 89 % 10.34 C
1388 13-04-2018 19:35:00 12 C 90 % 10.41 C
1389 13-04-2018 19:40:00 11.9 C 90 % 10.31 C
1390 13-04-2018 19:45:00 11.9 C 90 % 10.31 C
1391 13-04-2018 19:50:00 11.8 C 90 % 10.21 C
1392 13-04-2018 19:55:00 11.7 C 90 % 10.12 C
1393 13-04-2018 20:00:00 11.7 C 89 % 9.95 C
1394 13-04-2018 20:05:00 11.8 C 89 % 10.05 C
1395 13-04-2018 20:10:00 11.8 C 89 % 10.05 C
1396 13-04-2018 20:15:00 11.8 C 89 % 10.05 C
1397 13-04-2018 20:20:00 11.8 C 90 % 10.21 C
1398 13-04-2018 20:25:00 11.8 C 90 % 10.21 C
1399 13-04-2018 20:30:00 11.7 C 90 % 10.12 C
1400 13-04-2018 20:35:00 11.7 C 90 % 10.12 C
Sensor: Nr:Datum:Temp:Feuchte:Taupunkt:
Aussen-T/F 1401 13-04-2018 20:40:00 11.6 C 90 % 10.02 C
1402 13-04-2018 20:45:00 11.6 C 91 % 10.18 C
1403 13-04-2018 20:50:00 11.6 C 91 % 10.18 C
1404 13-04-2018 20:55:00 11.6 C 92 % 10.35 C
1405 13-04-2018 21:00:00 11.5 C 92 % 10.25 C
1406 13-04-2018 21:05:00 11.4 C 92 % 10.15 C
1407 13-04-2018 21:10:00 11.4 C 93 % 10.31 C
1408 13-04-2018 21:15:00 11.3 C 93 % 10.21 C
1409 13-04-2018 21:20:00 11.3 C 93 % 10.21 C
1410 13-04-2018 21:25:00 11.3 C 93 % 10.21 C
1411 13-04-2018 21:30:00 11.2 C 93 % 10.11 C
1412 13-04-2018 21:35:00 11.2 C 93 % 10.11 C
1413 13-04-2018 21:40:00 11.2 C 94 % 10.27 C
1414 13-04-2018 21:45:00 11.1 C 94 % 10.17 C
1415 13-04-2018 21:50:00 11.1 C 94 % 10.17 C
1416 13-04-2018 21:55:00 11 C 94 % 10.07 C
1417 13-04-2018 22:00:00 10.9 C 94 % 9.97 C
1418 13-04-2018 22:05:00 10.9 C 94 % 9.97 C
1419 13-04-2018 22:10:00 10.8 C 94 % 9.87 C
1420 13-04-2018 22:15:00 10.8 C 94 % 9.87 C
1421 13-04-2018 22:20:00 10.7 C 94 % 9.77 C
1422 13-04-2018 22:25:00 10.7 C 94 % 9.77 C
1423 13-04-2018 22:30:00 10.6 C 94 % 9.68 C
1424 13-04-2018 22:35:00 10.6 C 94 % 9.68 C
1425 13-04-2018 22:40:00 10.6 C 94 % 9.68 C
Sensor: Nr:Datum:Temp:Feuchte:Taupunkt:
Aussen-T/F 1426 13-04-2018 22:45:00 10.5 C 94 % 9.58 C
1427 13-04-2018 22:50:00 10.5 C 94 % 9.58 C
1428 13-04-2018 22:55:00 10.5 C 95 % 9.73 C
1429 13-04-2018 23:00:00 10.5 C 95 % 9.73 C
1430 13-04-2018 23:05:00 10.5 C 95 % 9.73 C
1431 13-04-2018 23:10:00 10.4 C 95 % 9.63 C
1432 13-04-2018 23:15:00 10.4 C 95 % 9.63 C
1433 13-04-2018 23:20:00 10.3 C 95 % 9.54 C
1434 13-04-2018 23:25:00 10.3 C 95 % 9.54 C
1435 13-04-2018 23:30:00 10.2 C 94 % 9.28 C
1436 13-04-2018 23:35:00 10.1 C 94 % 9.18 C
1437 13-04-2018 23:40:00 10.1 C 95 % 9.34 C
1438 13-04-2018 23:45:00 9.9 C 94 % 8.98 C
1439 13-04-2018 23:50:00 9.8 C 94 % 8.88 C
1440 13-04-2018 23:55:00 9.7 C 94 % 8.78 C
1441 14-04-2018 00:00:00 9.7 C 94 % 8.78 C
1442 14-04-2018 00:05:00 9.6 C 94 % 8.68 C
1443 14-04-2018 00:10:00 9.4 C 94 % 8.48 C
1444 14-04-2018 00:15:00 9.3 C 94 % 8.39 C
1445 14-04-2018 00:20:00 9.2 C 94 % 8.29 C
1446 14-04-2018 00:25:00 9.2 C 94 % 8.29 C
1447 14-04-2018 00:30:00 9.2 C 94 % 8.29 C
1448 14-04-2018 00:35:00 9.2 C 94 % 8.29 C
1449 14-04-2018 00:40:00 9.2 C 94 % 8.29 C
1450 14-04-2018 00:45:00 9.2 C 95 % 8.44 C
Sensor: Nr:Datum:Temp:Feuchte:Taupunkt:
Aussen-T/F 1451 14-04-2018 00:50:00 9.2 C 95 % 8.44 C
1452 14-04-2018 00:55:00 9.2 C 95 % 8.44 C
1453 14-04-2018 01:00:00 9.2 C 94 % 8.29 C
1454 14-04-2018 01:05:00 9.1 C 94 % 8.19 C
1455 14-04-2018 01:10:00 9.1 C 94 % 8.19 C
1456 14-04-2018 01:15:00 9 C 94 % 8.09 C
1457 14-04-2018 01:20:00 8.9 C 94 % 7.99 C
1458 14-04-2018 01:25:00 8.8 C 94 % 7.89 C
1459 14-04-2018 01:30:00 8.9 C 94 % 7.99 C
1460 14-04-2018 01:35:00 8.8 C 95 % 8.04 C
1461 14-04-2018 01:40:00 8.8 C 95 % 8.04 C
1462 14-04-2018 01:45:00 8.8 C 94 % 7.89 C
1463 14-04-2018 01:50:00 8.8 C 94 % 7.89 C
1464 14-04-2018 01:55:00 8.8 C 94 % 7.89 C
1465 14-04-2018 02:00:00 8.8 C 94 % 7.89 C
1466 14-04-2018 02:05:00 8.8 C 94 % 7.89 C
1467 14-04-2018 02:10:00 8.8 C 94 % 7.89 C
1468 14-04-2018 02:15:00 8.8 C 94 % 7.89 C
1469 14-04-2018 02:20:00 8.8 C 93 % 7.73 C
1470 14-04-2018 02:25:00 8.8 C 93 % 7.73 C
1471 14-04-2018 02:30:00 8.8 C 93 % 7.73 C
1472 14-04-2018 02:35:00 8.7 C 93 % 7.63 C
1473 14-04-2018 02:40:00 8.6 C 93 % 7.53 C
1474 14-04-2018 02:45:00 8.4 C 93 % 7.34 C
1475 14-04-2018 02:50:00 8.3 C 93 % 7.24 C
Sensor: Nr:Datum:Temp:Feuchte:Taupunkt:
Aussen-T/F 1476 14-04-2018 02:55:00 8.2 C 93 % 7.14 C
1477 14-04-2018 03:00:00 8.2 C 93 % 7.14 C
1478 14-04-2018 03:05:00 8.1 C 93 % 7.04 C
1479 14-04-2018 03:10:00 8 C 93 % 6.94 C
1480 14-04-2018 03:15:00 7.9 C 93 % 6.84 C
1481 14-04-2018 03:20:00 7.8 C 93 % 6.74 C
1482 14-04-2018 03:25:00 7.7 C 93 % 6.64 C
1483 14-04-2018 03:30:00 7.6 C 93 % 6.54 C
1484 14-04-2018 03:35:00 7.4 C 93 % 6.34 C
1485 14-04-2018 03:40:00 7.4 C 94 % 6.5 C
1486 14-04-2018 03:45:00 7.3 C 94 % 6.4 C
1487 14-04-2018 03:50:00 7.2 C 94 % 6.3 C
1488 14-04-2018 03:55:00 7.1 C 94 % 6.2 C
1489 14-04-2018 04:00:00 7 C 94 % 6.1 C
1490 14-04-2018 04:05:00 6.9 C 94 % 6 C
1491 14-04-2018 04:10:00 6.9 C 94 % 6 C
1492 14-04-2018 04:15:00 6.8 C 94 % 5.9 C
1493 14-04-2018 04:20:00 6.8 C 94 % 5.9 C
1494 14-04-2018 04:25:00 6.8 C 95 % 6.06 C
1495 14-04-2018 04:30:00 6.8 C 95 % 6.06 C
1496 14-04-2018 04:35:00 6.9 C 95 % 6.16 C
1497 14-04-2018 04:40:00 6.9 C 95 % 6.16 C
1498 14-04-2018 04:45:00 6.9 C 95 % 6.16 C
1499 14-04-2018 04:50:00 7 C 95 % 6.26 C
1500 14-04-2018 04:55:00 7 C 95 % 6.26 C
Sensor: Nr:Datum:Temp:Feuchte:Taupunkt:
Aussen-T/F 1501 14-04-2018 05:00:00 7 C 95 % 6.26 C
1502 14-04-2018 05:05:00 6.9 C 95 % 6.16 C
1503 14-04-2018 05:10:00 6.9 C 95 % 6.16 C
1504 14-04-2018 05:15:00 7 C 95 % 6.26 C
1505 14-04-2018 05:20:00 6.9 C 95 % 6.16 C
1506 14-04-2018 05:25:00 6.8 C 95 % 6.06 C
1507 14-04-2018 05:30:00 6.8 C 95 % 6.06 C
1508 14-04-2018 05:35:00 6.7 C 95 % 5.96 C
1509 14-04-2018 05:40:00 6.6 C 95 % 5.86 C
1510 14-04-2018 05:45:00 6.6 C 94 % 5.71 C
1511 14-04-2018 05:50:00 6.6 C 95 % 5.86 C
1512 14-04-2018 05:55:00 6.6 C 95 % 5.86 C
1513 14-04-2018 06:00:00 6.5 C 95 % 5.76 C
1514 14-04-2018 06:05:00 6.5 C 95 % 5.76 C
1515 14-04-2018 06:10:00 6.4 C 95 % 5.66 C
1516 14-04-2018 06:15:00 6.4 C 95 % 5.66 C
1517 14-04-2018 06:20:00 6.6 C 95 % 5.86 C
1518 14-04-2018 06:25:00 6.6 C 95 % 5.86 C
1519 14-04-2018 06:30:00 6.6 C 95 % 5.86 C
1520 14-04-2018 06:35:00 6.4 C 95 % 5.66 C
1521 14-04-2018 06:40:00 6.2 C 94 % 5.31 C
1522 14-04-2018 06:45:00 6.1 C 95 % 5.36 C
1523 14-04-2018 06:50:00 6.1 C 95 % 5.36 C
1524 14-04-2018 06:55:00 6.1 C 95 % 5.36 C
1525 14-04-2018 07:00:00 6.1 C 95 % 5.36 C
Sensor: Nr:Datum:Temp:Feuchte:Taupunkt:
Aussen-T/F 1526 14-04-2018 07:05:00 6 C 95 % 5.26 C
1527 14-04-2018 07:10:00 5.9 C 95 % 5.16 C
1528 14-04-2018 07:15:00 5.9 C 95 % 5.16 C
1529 14-04-2018 07:20:00 5.9 C 95 % 5.16 C
1530 14-04-2018 07:25:00 5.9 C 95 % 5.16 C
1531 14-04-2018 07:30:00 6.1 C 95 % 5.36 C
1532 14-04-2018 07:35:00 6.1 C 96 % 5.51 C
1533 14-04-2018 07:40:00 6.1 C 96 % 5.51 C
1534 14-04-2018 07:45:00 6.1 C 95 % 5.36 C
1535 14-04-2018 07:50:00 6.1 C 95 % 5.36 C
1536 14-04-2018 07:55:00 6.1 C 95 % 5.36 C
1537 14-04-2018 08:00:00 6.1 C 96 % 5.51 C
1538 14-04-2018 08:05:00 6.1 C 96 % 5.51 C
1539 14-04-2018 08:10:00 6.2 C 96 % 5.61 C
1540 14-04-2018 08:15:00 6.3 C 96 % 5.71 C
1541 14-04-2018 08:20:00 6.4 C 96 % 5.81 C
1542 14-04-2018 08:25:00 6.6 C 96 % 6.01 C
1543 14-04-2018 08:30:00 6.7 C 96 % 6.11 C
1544 14-04-2018 08:35:00 6.8 C 96 % 6.21 C
1545 14-04-2018 08:40:00 7.1 C 96 % 6.51 C
1546 14-04-2018 08:45:00 7.2 C 96 % 6.61 C
1547 14-04-2018 08:50:00 7.3 C 96 % 6.71 C
1548 14-04-2018 08:55:00 7.3 C 96 % 6.71 C
1549 14-04-2018 09:00:00 7.5 C 96 % 6.9 C
1550 14-04-2018 09:05:00 7.7 C 96 % 7.1 C
Sensor: Nr:Datum:Temp:Feuchte:Taupunkt:
Aussen-T/F 1551 14-04-2018 09:10:00 7.8 C 96 % 7.2 C
1552 14-04-2018 09:15:00 8.1 C 96 % 7.5 C
1553 14-04-2018 09:20:00 8.2 C 96 % 7.6 C
1554 14-04-2018 09:25:00 8.3 C 96 % 7.7 C
1555 14-04-2018 09:30:00 8.5 C 96 % 7.9 C
1556 14-04-2018 09:35:00 8.6 C 96 % 8 C
1557 14-04-2018 09:40:00 8.7 C 96 % 8.1 C
1558 14-04-2018 09:45:00 8.9 C 96 % 8.3 C
1559 14-04-2018 09:50:00 9.1 C 96 % 8.5 C
1560 14-04-2018 09:55:00 9.3 C 96 % 8.7 C
1561 14-04-2018 10:00:00 9.5 C 96 % 8.89 C
1562 14-04-2018 10:05:00 9.8 C 96 % 9.19 C
1563 14-04-2018 10:10:00 10.1 C 96 % 9.49 C
1564 14-04-2018 10:15:00 10.4 C 95 % 9.63 C
1565 14-04-2018 10:20:00 10.7 C 93 % 9.62 C
1566 14-04-2018 10:25:00 11 C 91 % 9.59 C
1567 14-04-2018 10:30:00 11.2 C 90 % 9.62 C
1568 14-04-2018 10:35:00 11.5 C 89 % 9.75 C
1569 14-04-2018 10:40:00 11.8 C 88 % 9.88 C
1570 14-04-2018 10:45:00 12.2 C 86 % 9.93 C
1571 14-04-2018 10:50:00 12.6 C 85 % 10.15 C
1572 14-04-2018 10:55:00 12.9 C 83 % 10.09 C
1573 14-04-2018 11:00:00 13.3 C 81 % 10.11 C
1574 14-04-2018 11:05:00 13.6 C 79 % 10.03 C
1575 14-04-2018 11:10:00 13.9 C 78 % 10.13 C
Sensor: Nr:Datum:Temp:Feuchte:Taupunkt:
Aussen-T/F 1576 14-04-2018 11:15:00 14.2 C 77 % 10.23 C
1577 14-04-2018 11:20:00 14.5 C 76 % 10.32 C
1578 14-04-2018 11:25:00 14.8 C 74 % 10.22 C
1579 14-04-2018 11:30:00 15 C 74 % 10.41 C
1580 14-04-2018 11:35:00 15.2 C 72 % 10.19 C
1581 14-04-2018 11:40:00 15.3 C 73 % 10.49 C
1582 14-04-2018 11:45:00 15.4 C 72 % 10.38 C
1583 14-04-2018 11:50:00 15.6 C 71 % 10.37 C
1584 14-04-2018 11:55:00 15.8 C 71 % 10.56 C
1585 14-04-2018 12:00:00 15.9 C 70 % 10.44 C
1586 14-04-2018 12:05:00 16.1 C 69 % 10.42 C
1587 14-04-2018 12:10:00 16.3 C 68 % 10.39 C
1588 14-04-2018 12:15:00 16.4 C 68 % 10.48 C
1589 14-04-2018 12:20:00 16.6 C 67 % 10.45 C
1590 14-04-2018 12:25:00 16.8 C 66 % 10.42 C
1591 14-04-2018 12:30:00 17 C 64 % 10.15 C
1592 14-04-2018 12:35:00 17.2 C 63 % 10.1 C
1593 14-04-2018 12:40:00 17.3 C 62 % 9.96 C
1594 14-04-2018 12:45:00 17.4 C 64 % 10.53 C
1595 14-04-2018 12:50:00 17.6 C 62 % 10.24 C
1596 14-04-2018 12:55:00 17.7 C 60 % 9.84 C
1597 14-04-2018 13:00:00 17.8 C 58 % 9.43 C
1598 14-04-2018 13:05:00 17.8 C 59 % 9.69 C
1599 14-04-2018 13:10:00 17.8 C 58 % 9.43 C
1600 14-04-2018 13:15:00 17.9 C 56 % 9.01 C
Sensor: Nr:Datum:Temp:Feuchte:Taupunkt:
Aussen-T/F 1601 14-04-2018 13:20:00 18.1 C 60 % 10.22 C
1602 14-04-2018 13:25:00 18.3 C 56 % 9.38 C
1603 14-04-2018 13:30:00 18.4 C 55 % 9.2 C
1604 14-04-2018 13:35:00 18.6 C 56 % 9.66 C
1605 14-04-2018 13:40:00 18.6 C 54 % 9.12 C
1606 14-04-2018 13:45:00 18.6 C 54 % 9.12 C
1607 14-04-2018 13:50:00 18.8 C 54 % 9.3 C
1608 14-04-2018 13:55:00 18.9 C 55 % 9.67 C
1609 14-04-2018 14:00:00 19.1 C 54 % 9.58 C
1610 14-04-2018 14:05:00 19.3 C 53 % 9.49 C
1611 14-04-2018 14:10:00 19.3 C 52 % 9.21 C
1612 14-04-2018 14:15:00 19.5 C 51 % 9.1 C
1613 14-04-2018 14:20:00 19.7 C 51 % 9.29 C
1614 14-04-2018 14:25:00 19.8 C 48 % 8.48 C
1615 14-04-2018 14:30:00 20 C 50 % 9.27 C
1616 14-04-2018 14:35:00 20.2 C 49 % 9.15 C
1617 14-04-2018 14:40:00 20.3 C 48 % 8.94 C
1618 14-04-2018 14:45:00 20.4 C 47 % 8.72 C
1619 14-04-2018 14:50:00 20.6 C 46 % 8.58 C
1620 14-04-2018 14:55:00 20.7 C 47 % 8.99 C
1621 14-04-2018 15:00:00 20.7 C 47 % 8.99 C
1622 14-04-2018 15:05:00 20.7 C 46 % 8.67 C
1623 14-04-2018 15:10:00 20.7 C 47 % 8.99 C
1624 14-04-2018 15:15:00 20.6 C 46 % 8.58 C
1625 14-04-2018 15:20:00 20.5 C 47 % 8.81 C
Sensor: Nr:Datum:Temp:Feuchte:Taupunkt:
Aussen-T/F 1626 14-04-2018 15:25:00 20.3 C 47 % 8.63 C
1627 14-04-2018 15:30:00 20.2 C 47 % 8.54 C
1628 14-04-2018 15:35:00 20.3 C 47 % 8.63 C
1629 14-04-2018 15:40:00 20.6 C 47 % 8.9 C
1630 14-04-2018 15:45:00 20.6 C 47 % 8.9 C
1631 14-04-2018 15:50:00 20.8 C 49 % 9.7 C
1632 14-04-2018 15:55:00 20.9 C 46 % 8.86 C
1633 14-04-2018 16:00:00 20.9 C 45 % 8.53 C
1634 14-04-2018 16:05:00 20.9 C 46 % 8.86 C
1635 14-04-2018 16:10:00 20.9 C 46 % 8.86 C
1636 14-04-2018 16:15:00 21.1 C 45 % 8.71 C
1637 14-04-2018 16:20:00 21.3 C 45 % 8.89 C
1638 14-04-2018 16:25:00 21.3 C 47 % 9.54 C
1639 14-04-2018 16:30:00 21.4 C 45 % 8.99 C
1640 14-04-2018 16:35:00 21.4 C 45 % 8.99 C
1641 14-04-2018 16:40:00 21.4 C 43 % 8.31 C
1642 14-04-2018 16:45:00 21.3 C 45 % 8.89 C
1643 14-04-2018 16:50:00 21.2 C 45 % 8.8 C
1644 14-04-2018 16:55:00 21.2 C 47 % 9.45 C
1645 14-04-2018 17:00:00 21.1 C 46 % 9.04 C
1646 14-04-2018 17:05:00 20.9 C 46 % 8.86 C
1647 14-04-2018 17:10:00 20.8 C 45 % 8.44 C
1648 14-04-2018 17:15:00 20.9 C 45 % 8.53 C
1649 14-04-2018 17:20:00 20.9 C 46 % 8.86 C
1650 14-04-2018 17:25:00 20.8 C 46 % 8.77 C
Sensor: Nr:Datum:Temp:Feuchte:Taupunkt:
Aussen-T/F 1651 14-04-2018 17:30:00 20.8 C 46 % 8.77 C
1652 14-04-2018 17:35:00 20.7 C 46 % 8.67 C
1653 14-04-2018 17:40:00 20.5 C 48 % 9.12 C
1654 14-04-2018 17:45:00 20.3 C 48 % 8.94 C
1655 14-04-2018 17:50:00 20.2 C 49 % 9.15 C
1656 14-04-2018 17:55:00 20.1 C 48 % 8.76 C
1657 14-04-2018 18:00:00 20.1 C 49 % 9.06 C
1658 14-04-2018 18:05:00 19.9 C 51 % 9.47 C
1659 14-04-2018 18:10:00 19.8 C 51 % 9.38 C
1660 14-04-2018 18:15:00 19.8 C 51 % 9.38 C
1661 14-04-2018 18:20:00 19.8 C 51 % 9.38 C
1662 14-04-2018 18:25:00 19.7 C 50 % 8.99 C
1663 14-04-2018 18:30:00 19.6 C 52 % 9.48 C
1664 14-04-2018 18:35:00 19.5 C 53 % 9.67 C
1665 14-04-2018 18:40:00 19.4 C 52 % 9.3 C
1666 14-04-2018 18:45:00 19.3 C 52 % 9.21 C
1667 14-04-2018 18:50:00 19.3 C 53 % 9.49 C
1668 14-04-2018 18:55:00 19.2 C 53 % 9.4 C
1669 14-04-2018 19:00:00 19.1 C 53 % 9.3 C
1670 14-04-2018 19:05:00 19 C 56 % 10.03 C
1671 14-04-2018 19:10:00 18.8 C 55 % 9.58 C
1672 14-04-2018 19:15:00 18.7 C 59 % 10.53 C
1673 14-04-2018 19:20:00 18.6 C 61 % 10.94 C
1674 14-04-2018 19:25:00 18.4 C 61 % 10.75 C
1675 14-04-2018 19:30:00 18.2 C 62 % 10.81 C
Sensor: Nr:Datum:Temp:Feuchte:Taupunkt:
Aussen-T/F 1676 14-04-2018 19:35:00 18 C 63 % 10.86 C
1677 14-04-2018 19:40:00 17.8 C 63 % 10.67 C
1678 14-04-2018 19:45:00 17.5 C 64 % 10.62 C
1679 14-04-2018 19:50:00 17.3 C 65 % 10.66 C
1680 14-04-2018 19:55:00 17 C 65 % 10.38 C
1681 14-04-2018 20:00:00 16.7 C 65 % 10.09 C
1682 14-04-2018 20:05:00 16.4 C 67 % 10.26 C
1683 14-04-2018 20:10:00 16.2 C 68 % 10.29 C
1684 14-04-2018 20:15:00 15.9 C 67 % 9.79 C
1685 14-04-2018 20:20:00 15.7 C 69 % 10.03 C
1686 14-04-2018 20:25:00 15.6 C 68 % 9.72 C
1687 14-04-2018 20:30:00 15.4 C 68 % 9.53 C
1688 14-04-2018 20:35:00 15.3 C 69 % 9.65 C
1689 14-04-2018 20:40:00 15.1 C 69 % 9.46 C
1690 14-04-2018 20:45:00 15 C 69 % 9.36 C
1691 14-04-2018 20:50:00 14.8 C 70 % 9.39 C
1692 14-04-2018 20:55:00 14.7 C 71 % 9.5 C
1693 14-04-2018 21:00:00 14.6 C 71 % 9.41 C
1694 14-04-2018 21:05:00 14.4 C 72 % 9.42 C
1695 14-04-2018 21:10:00 14.4 C 72 % 9.42 C
1696 14-04-2018 21:15:00 14.4 C 73 % 9.63 C
1697 14-04-2018 21:20:00 14.4 C 73 % 9.63 C
1698 14-04-2018 21:25:00 14.5 C 74 % 9.93 C
1699 14-04-2018 21:30:00 14.5 C 74 % 9.93 C
1700 14-04-2018 21:35:00 14.5 C 74 % 9.93 C
Sensor: Nr:Datum:Temp:Feuchte:Taupunkt:
Aussen-T/F 1701 14-04-2018 21:40:00 14.5 C 75 % 10.13 C
1702 14-04-2018 21:45:00 14.4 C 74 % 9.83 C
1703 14-04-2018 21:50:00 14.4 C 75 % 10.03 C
1704 14-04-2018 21:55:00 14.3 C 75 % 9.93 C
1705 14-04-2018 22:00:00 14.3 C 75 % 9.93 C
1706 14-04-2018 22:05:00 14.2 C 75 % 9.84 C
1707 14-04-2018 22:10:00 14.2 C 75 % 9.84 C
1708 14-04-2018 22:15:00 14.1 C 76 % 9.94 C
1709 14-04-2018 22:20:00 14 C 76 % 9.84 C
1710 14-04-2018 22:25:00 14 C 76 % 9.84 C
1711 14-04-2018 22:30:00 13.9 C 77 % 9.94 C
1712 14-04-2018 22:35:00 13.8 C 77 % 9.84 C
1713 14-04-2018 22:40:00 13.8 C 77 % 9.84 C
1714 14-04-2018 22:45:00 13.7 C 77 % 9.75 C
1715 14-04-2018 22:50:00 13.6 C 77 % 9.65 C
1716 14-04-2018 22:55:00 13.6 C 77 % 9.65 C
1717 14-04-2018 23:00:00 13.5 C 78 % 9.74 C
1718 14-04-2018 23:05:00 13.4 C 78 % 9.65 C
1719 14-04-2018 23:10:00 13.4 C 78 % 9.65 C
1720 14-04-2018 23:15:00 13.4 C 78 % 9.65 C
1721 14-04-2018 23:20:00 13.3 C 79 % 9.74 C
1722 14-04-2018 23:25:00 13.3 C 79 % 9.74 C
1723 14-04-2018 23:30:00 13.3 C 79 % 9.74 C
1724 14-04-2018 23:35:00 13.2 C 79 % 9.64 C
1725 14-04-2018 23:40:00 13.2 C 79 % 9.64 C
Sensor: Nr:Datum:Temp:Feuchte:Taupunkt:
Aussen-T/F 1726 14-04-2018 23:45:00 13.1 C 80 % 9.73 C
1727 14-04-2018 23:50:00 13 C 80 % 9.63 C
1728 14-04-2018 23:55:00 12.9 C 81 % 9.72 C
1729 15-04-2018 00:00:00 12.9 C 81 % 9.72 C
1730 15-04-2018 00:05:00 12.8 C 81 % 9.62 C
1731 15-04-2018 00:10:00 12.8 C 82 % 9.81 C
1732 15-04-2018 00:15:00 12.7 C 82 % 9.71 C
1733 15-04-2018 00:20:00 12.7 C 82 % 9.71 C
1734 15-04-2018 00:25:00 12.7 C 82 % 9.71 C
1735 15-04-2018 00:30:00 12.7 C 83 % 9.89 C
1736 15-04-2018 00:35:00 12.7 C 83 % 9.89 C
1737 15-04-2018 00:40:00 12.7 C 83 % 9.89 C
1738 15-04-2018 00:45:00 12.6 C 83 % 9.79 C
1739 15-04-2018 00:50:00 12.6 C 84 % 9.97 C
1740 15-04-2018 00:55:00 12.6 C 84 % 9.97 C
1741 15-04-2018 01:00:00 12.6 C 84 % 9.97 C
1742 15-04-2018 01:05:00 12.6 C 83 % 9.79 C
1743 15-04-2018 01:10:00 12.6 C 83 % 9.79 C
1744 15-04-2018 01:15:00 12.6 C 83 % 9.79 C
1745 15-04-2018 01:20:00 12.6 C 83 % 9.79 C
1746 15-04-2018 01:25:00 12.6 C 83 % 9.79 C
1747 15-04-2018 01:30:00 12.6 C 83 % 9.79 C
1748 15-04-2018 01:35:00 12.7 C 83 % 9.89 C
1749 15-04-2018 01:40:00 12.7 C 83 % 9.89 C
1750 15-04-2018 01:45:00 12.6 C 83 % 9.79 C
Sensor: Nr:Datum:Temp:Feuchte:Taupunkt:
Aussen-T/F 1751 15-04-2018 01:50:00 12.6 C 83 % 9.79 C
1752 15-04-2018 01:55:00 12.6 C 83 % 9.79 C
1753 15-04-2018 02:00:00 12.6 C 83 % 9.79 C
1754 15-04-2018 02:05:00 12.6 C 83 % 9.79 C
1755 15-04-2018 02:10:00 12.6 C 84 % 9.97 C
1756 15-04-2018 02:15:00 12.6 C 83 % 9.79 C
1757 15-04-2018 02:20:00 12.5 C 83 % 9.69 C
1758 15-04-2018 02:25:00 12.5 C 83 % 9.69 C
1759 15-04-2018 02:30:00 12.5 C 83 % 9.69 C
1760 15-04-2018 02:35:00 12.6 C 83 % 9.79 C
1761 15-04-2018 02:40:00 12.6 C 83 % 9.79 C
1762 15-04-2018 02:45:00 12.7 C 83 % 9.89 C
1763 15-04-2018 02:50:00 12.7 C 84 % 10.07 C
1764 15-04-2018 02:55:00 12.7 C 85 % 10.25 C
1765 15-04-2018 03:00:00 12.7 C 86 % 10.42 C
1766 15-04-2018 03:05:00 12.7 C 87 % 10.59 C
1767 15-04-2018 03:10:00 12.6 C 87 % 10.5 C
1768 15-04-2018 03:15:00 12.6 C 89 % 10.84 C
1769 15-04-2018 03:20:00 12.5 C 90 % 10.91 C
1770 15-04-2018 03:25:00 12.5 C 90 % 10.91 C
1771 15-04-2018 03:30:00 12.4 C 91 % 10.97 C
1772 15-04-2018 03:35:00 12.4 C 91 % 10.97 C
1773 15-04-2018 03:40:00 12.3 C 91 % 10.87 C
1774 15-04-2018 03:45:00 12.3 C 92 % 11.04 C
1775 15-04-2018 03:50:00 12.2 C 92 % 10.94 C
Sensor: Nr:Datum:Temp:Feuchte:Taupunkt:
Aussen-T/F 1776 15-04-2018 03:55:00 12.2 C 92 % 10.94 C
1777 15-04-2018 04:00:00 12.1 C 92 % 10.84 C
1778 15-04-2018 04:05:00 12.1 C 93 % 11 C
1779 15-04-2018 04:10:00 12.1 C 93 % 11 C
1780 15-04-2018 04:15:00 12 C 93 % 10.9 C
1781 15-04-2018 04:20:00 11.9 C 93 % 10.81 C
1782 15-04-2018 04:25:00 11.9 C 93 % 10.81 C
1783 15-04-2018 04:30:00 11.9 C 93 % 10.81 C
1784 15-04-2018 04:35:00 11.8 C 93 % 10.71 C
1785 15-04-2018 04:40:00 11.8 C 93 % 10.71 C
1786 15-04-2018 04:45:00 11.8 C 94 % 10.87 C
1787 15-04-2018 04:50:00 11.7 C 94 % 10.77 C
1788 15-04-2018 04:55:00 11.7 C 94 % 10.77 C
1789 15-04-2018 05:00:00 11.7 C 94 % 10.77 C
1790 15-04-2018 05:05:00 11.7 C 94 % 10.77 C
1791 15-04-2018 05:10:00 11.7 C 94 % 10.77 C
1792 15-04-2018 05:15:00 11.7 C 94 % 10.77 C
1793 15-04-2018 05:20:00 11.7 C 94 % 10.77 C
1794 15-04-2018 05:25:00 11.7 C 94 % 10.77 C
1795 15-04-2018 05:30:00 11.7 C 94 % 10.77 C
1796 15-04-2018 05:35:00 11.7 C 94 % 10.77 C
1797 15-04-2018 05:40:00 11.6 C 94 % 10.67 C
1798 15-04-2018 05:45:00 11.6 C 94 % 10.67 C
1799 15-04-2018 05:50:00 11.6 C 94 % 10.67 C
1800 15-04-2018 05:55:00 11.6 C 94 % 10.67 C
Sensor: Nr:Datum:Temp:Feuchte:Taupunkt:
Aussen-T/F 1801 15-04-2018 06:00:00 11.6 C 95 % 10.83 C
1802 15-04-2018 06:05:00 11.7 C 95 % 10.93 C
1803 15-04-2018 06:10:00 11.7 C 95 % 10.93 C
1804 15-04-2018 06:15:00 11.6 C 95 % 10.83 C
1805 15-04-2018 06:20:00 11.6 C 95 % 10.83 C
1806 15-04-2018 06:25:00 11.6 C 95 % 10.83 C
1807 15-04-2018 06:30:00 11.6 C 95 % 10.83 C
1808 15-04-2018 06:35:00 11.5 C 95 % 10.73 C
1809 15-04-2018 06:40:00 11.5 C 95 % 10.73 C
1810 15-04-2018 06:45:00 11.5 C 95 % 10.73 C
1811 15-04-2018 06:50:00 11.5 C 95 % 10.73 C
1812 15-04-2018 06:55:00 11.5 C 95 % 10.73 C
1813 15-04-2018 07:00:00 11.5 C 95 % 10.73 C
1814 15-04-2018 07:05:00 11.5 C 95 % 10.73 C
1815 15-04-2018 07:10:00 11.5 C 95 % 10.73 C
1816 15-04-2018 07:15:00 11.5 C 95 % 10.73 C
1817 15-04-2018 07:20:00 11.5 C 95 % 10.73 C
1818 15-04-2018 07:25:00 11.4 C 95 % 10.63 C
1819 15-04-2018 07:30:00 11.4 C 95 % 10.63 C
1820 15-04-2018 07:35:00 11.4 C 95 % 10.63 C
1821 15-04-2018 07:40:00 11.5 C 95 % 10.73 C
1822 15-04-2018 07:45:00 11.5 C 96 % 10.88 C
1823 15-04-2018 07:50:00 11.6 C 96 % 10.98 C
1824 15-04-2018 07:55:00 11.6 C 96 % 10.98 C
1825 15-04-2018 08:00:00 11.6 C 96 % 10.98 C
Sensor: Nr:Datum:Temp:Feuchte:Taupunkt:
Aussen-T/F 1826 15-04-2018 08:05:00 11.6 C 96 % 10.98 C
1827 15-04-2018 08:10:00 11.6 C 96 % 10.98 C
1828 15-04-2018 08:15:00 11.7 C 96 % 11.08 C
1829 15-04-2018 08:20:00 11.7 C 96 % 11.08 C
1830 15-04-2018 08:25:00 11.7 C 96 % 11.08 C
1831 15-04-2018 08:30:00 11.7 C 96 % 11.08 C
1832 15-04-2018 08:35:00 11.8 C 96 % 11.18 C
1833 15-04-2018 08:40:00 11.8 C 96 % 11.18 C
1834 15-04-2018 08:45:00 11.8 C 96 % 11.18 C
1835 15-04-2018 08:50:00 11.8 C 96 % 11.18 C
1836 15-04-2018 08:55:00 11.8 C 96 % 11.18 C
1837 15-04-2018 09:00:00 11.9 C 96 % 11.28 C
1838 15-04-2018 09:05:00 11.9 C 96 % 11.28 C
1839 15-04-2018 09:10:00 11.9 C 96 % 11.28 C
1840 15-04-2018 09:15:00 12 C 96 % 11.38 C
1841 15-04-2018 09:20:00 12.1 C 96 % 11.48 C
1842 15-04-2018 09:25:00 12.2 C 96 % 11.58 C
1843 15-04-2018 09:30:00 12.3 C 96 % 11.68 C
1844 15-04-2018 09:35:00 12.3 C 96 % 11.68 C
1845 15-04-2018 09:40:00 12.4 C 96 % 11.78 C
1846 15-04-2018 09:45:00 12.3 C 96 % 11.68 C
1847 15-04-2018 09:50:00 12.3 C 96 % 11.68 C
1848 15-04-2018 09:55:00 12.4 C 96 % 11.78 C
1849 15-04-2018 10:00:00 12.6 C 96 % 11.98 C
1850 15-04-2018 10:05:00 12.7 C 96 % 12.08 C
Sensor: Nr:Datum:Temp:Feuchte:Taupunkt:
Aussen-T/F 1851 15-04-2018 10:10:00 12.6 C 96 % 11.98 C
1852 15-04-2018 10:15:00 12.7 C 96 % 12.08 C
1853 15-04-2018 10:20:00 12.7 C 96 % 12.08 C
1854 15-04-2018 10:25:00 12.8 C 96 % 12.18 C
1855 15-04-2018 10:30:00 12.8 C 96 % 12.18 C
1856 15-04-2018 10:35:00 12.9 C 96 % 12.28 C
1857 15-04-2018 10:40:00 12.9 C 95 % 12.12 C
1858 15-04-2018 10:45:00 12.9 C 95 % 12.12 C
1859 15-04-2018 10:50:00 12.9 C 95 % 12.12 C
1860 15-04-2018 10:55:00 13.1 C 95 % 12.32 C
1861 15-04-2018 11:00:00 13.2 C 95 % 12.42 C
1862 15-04-2018 11:05:00 13.3 C 95 % 12.52 C
1863 15-04-2018 11:10:00 13.4 C 95 % 12.62 C
1864 15-04-2018 11:15:00 13.4 C 94 % 12.45 C
1865 15-04-2018 11:20:00 13.4 C 94 % 12.45 C
1866 15-04-2018 11:25:00 13.5 C 94 % 12.55 C
1867 15-04-2018 11:30:00 13.7 C 95 % 12.91 C
1868 15-04-2018 11:35:00 13.8 C 94 % 12.85 C
1869 15-04-2018 11:40:00 13.8 C 94 % 12.85 C
1870 15-04-2018 11:45:00 13.7 C 93 % 12.59 C
1871 15-04-2018 11:50:00 13.8 C 93 % 12.69 C
1872 15-04-2018 11:55:00 13.9 C 93 % 12.79 C
1873 15-04-2018 12:00:00 13.8 C 92 % 12.52 C
1874 15-04-2018 12:05:00 13.8 C 91 % 12.36 C
1875 15-04-2018 12:10:00 13.9 C 88 % 11.95 C
Sensor: Nr:Datum:Temp:Feuchte:Taupunkt:
Aussen-T/F 1876 15-04-2018 12:15:00 13.9 C 88 % 11.95 C
1877 15-04-2018 12:20:00 14.1 C 89 % 12.32 C
1878 15-04-2018 12:25:00 14.2 C 89 % 12.41 C
1879 15-04-2018 12:30:00 14.2 C 87 % 12.07 C
1880 15-04-2018 12:35:00 14.3 C 83 % 11.45 C
1881 15-04-2018 12:40:00 14.6 C 85 % 12.11 C
1882 15-04-2018 12:45:00 14.8 C 82 % 11.76 C
1883 15-04-2018 12:50:00 14.8 C 82 % 11.76 C
1884 15-04-2018 12:55:00 14.9 C 82 % 11.86 C
1885 15-04-2018 13:00:00 15.1 C 81 % 11.87 C
1886 15-04-2018 13:05:00 15.3 C 79 % 11.68 C
1887 15-04-2018 13:10:00 15.5 C 79 % 11.88 C
1888 15-04-2018 13:15:00 15.7 C 77 % 11.68 C
1889 15-04-2018 13:20:00 15.8 C 77 % 11.78 C
1890 15-04-2018 13:25:00 16 C 78 % 12.17 C
1891 15-04-2018 13:30:00 15.9 C 74 % 11.28 C
1892 15-04-2018 13:35:00 16 C 77 % 11.97 C
1893 15-04-2018 13:40:00 16 C 76 % 11.77 C
1894 15-04-2018 13:45:00 16 C 78 % 12.17 C
1895 15-04-2018 13:50:00 16.2 C 73 % 11.36 C
1896 15-04-2018 13:55:00 16.3 C 73 % 11.46 C
1897 15-04-2018 14:00:00 16.4 C 75 % 11.96 C
1898 15-04-2018 14:05:00 16.6 C 75 % 12.15 C
1899 15-04-2018 14:10:00 16.7 C 73 % 11.84 C
1900 15-04-2018 14:15:00 16.8 C 74 % 12.14 C
Sensor: Nr:Datum:Temp:Feuchte:Taupunkt:
Aussen-T/F 1901 15-04-2018 14:20:00 16.9 C 73 % 12.03 C
1902 15-04-2018 14:25:00 17.2 C 72 % 12.11 C
1903 15-04-2018 14:30:00 17.4 C 70 % 11.88 C
1904 15-04-2018 14:35:00 17.7 C 68 % 11.72 C
1905 15-04-2018 14:40:00 17.9 C 66 % 11.46 C
1906 15-04-2018 14:45:00 18.2 C 67 % 11.98 C
1907 15-04-2018 14:50:00 18.4 C 65 % 11.71 C
1908 15-04-2018 14:55:00 18.7 C 64 % 11.76 C
1909 15-04-2018 15:00:00 18.8 C 63 % 11.61 C
1910 15-04-2018 15:05:00 18.8 C 64 % 11.85 C
1911 15-04-2018 15:10:00 18.8 C 63 % 11.61 C
1912 15-04-2018 15:15:00 18.8 C 60 % 10.88 C
1913 15-04-2018 15:20:00 18.9 C 64 % 11.95 C
1914 15-04-2018 15:25:00 19.1 C 59 % 10.91 C
1915 15-04-2018 15:30:00 19.1 C 59 % 10.91 C
1916 15-04-2018 15:35:00 19.2 C 59 % 11 C
1917 15-04-2018 15:40:00 19.2 C 60 % 11.25 C
1918 15-04-2018 15:45:00 19.3 C 59 % 11.09 C
1919 15-04-2018 15:50:00 19.4 C 56 % 10.4 C
1920 15-04-2018 15:55:00 19.5 C 56 % 10.5 C
1921 15-04-2018 16:00:00 19.6 C 58 % 11.12 C
1922 15-04-2018 16:05:00 19.7 C 58 % 11.21 C
1923 15-04-2018 16:10:00 19.8 C 57 % 11.04 C
1924 15-04-2018 16:15:00 19.8 C 56 % 10.78 C
1925 15-04-2018 16:20:00 19.8 C 54 % 10.23 C
Sensor: Nr:Datum:Temp:Feuchte:Taupunkt:
Aussen-T/F 1926 15-04-2018 16:25:00 19.8 C 55 % 10.51 C
1927 15-04-2018 16:30:00 19.9 C 56 % 10.87 C
1928 15-04-2018 16:35:00 20.3 C 56 % 11.24 C
1929 15-04-2018 16:40:00 20.7 C 55 % 11.34 C
1930 15-04-2018 16:45:00 20.8 C 52 % 10.59 C
1931 15-04-2018 16:50:00 20.7 C 56 % 11.61 C
1932 15-04-2018 16:55:00 20.6 C 53 % 10.69 C
1933 15-04-2018 17:00:00 20.4 C 54 % 10.79 C
1934 15-04-2018 17:05:00 20.4 C 56 % 11.33 C
1935 15-04-2018 17:10:00 20.6 C 57 % 11.79 C
1936 15-04-2018 17:15:00 20.7 C 55 % 11.34 C
1937 15-04-2018 17:20:00 20.7 C 51 % 10.21 C
1938 15-04-2018 17:25:00 20.7 C 53 % 10.78 C
1939 15-04-2018 17:30:00 20.6 C 54 % 10.97 C
1940 15-04-2018 17:35:00 20.6 C 56 % 11.52 C
1941 15-04-2018 17:40:00 20.5 C 54 % 10.88 C
1942 15-04-2018 17:45:00 20.7 C 56 % 11.61 C
1943 15-04-2018 17:50:00 20.8 C 56 % 11.71 C
1944 15-04-2018 17:55:00 20.9 C 54 % 11.25 C
1945 15-04-2018 18:00:00 20.8 C 56 % 11.71 C
1946 15-04-2018 18:05:00 20.8 C 55 % 11.43 C
1947 15-04-2018 18:10:00 20.9 C 55 % 11.53 C
1948 15-04-2018 18:15:00 20.9 C 54 % 11.25 C
1949 15-04-2018 18:20:00 20.9 C 56 % 11.8 C
1950 15-04-2018 18:25:00 20.6 C 55 % 11.25 C
Sensor: Nr:Datum:Temp:Feuchte:Taupunkt:
Aussen-T/F 1951 15-04-2018 18:30:00 20.3 C 57 % 11.51 C
1952 15-04-2018 18:35:00 20 C 55 % 10.69 C
1953 15-04-2018 18:40:00 19.8 C 61 % 12.07 C
1954 15-04-2018 18:45:00 19.6 C 58 % 11.12 C
1955 15-04-2018 18:50:00 19.4 C 65 % 12.66 C
1956 15-04-2018 18:55:00 19.2 C 64 % 12.23 C
1957 15-04-2018 19:00:00 18.9 C 66 % 12.41 C
1958 15-04-2018 19:05:00 18.8 C 68 % 12.77 C
1959 15-04-2018 19:10:00 18.6 C 69 % 12.8 C
1960 15-04-2018 19:15:00 18.3 C 69 % 12.52 C
1961 15-04-2018 19:20:00 18.1 C 70 % 12.55 C
1962 15-04-2018 19:25:00 17.8 C 70 % 12.26 C
1963 15-04-2018 19:30:00 17.6 C 71 % 12.28 C
1964 15-04-2018 19:35:00 17.3 C 71 % 12 C
1965 15-04-2018 19:40:00 17.1 C 73 % 12.23 C
1966 15-04-2018 19:45:00 16.9 C 75 % 12.44 C
1967 15-04-2018 19:50:00 16.6 C 76 % 12.36 C
1968 15-04-2018 19:55:00 16.3 C 76 % 12.07 C
1969 15-04-2018 20:00:00 15.9 C 76 % 11.68 C
1970 15-04-2018 20:05:00 15.7 C 76 % 11.48 C
1971 15-04-2018 20:10:00 15.4 C 77 % 11.39 C
1972 15-04-2018 20:15:00 15.2 C 78 % 11.39 C
1973 15-04-2018 20:20:00 15 C 78 % 11.2 C
1974 15-04-2018 20:25:00 14.8 C 79 % 11.2 C
1975 15-04-2018 20:30:00 14.6 C 79 % 11 C
Sensor: Nr:Datum:Temp:Feuchte:Taupunkt:
Aussen-T/F 1976 15-04-2018 20:35:00 14.5 C 79 % 10.91 C
1977 15-04-2018 20:40:00 14.4 C 80 % 11 C
1978 15-04-2018 20:45:00 14.4 C 80 % 11 C
1979 15-04-2018 20:50:00 14.3 C 80 % 10.9 C
1980 15-04-2018 20:55:00 14.2 C 80 % 10.8 C
1981 15-04-2018 21:00:00 14.1 C 81 % 10.89 C
1982 15-04-2018 21:05:00 14 C 81 % 10.79 C
1983 15-04-2018 21:10:00 13.9 C 81 % 10.7 C
1984 15-04-2018 21:15:00 13.8 C 81 % 10.6 C
1985 15-04-2018 21:20:00 13.6 C 82 % 10.59 C
1986 15-04-2018 21:25:00 13.5 C 82 % 10.49 C
1987 15-04-2018 21:30:00 13.4 C 82 % 10.39 C
1988 15-04-2018 21:35:00 13.3 C 82 % 10.3 C
1989 15-04-2018 21:40:00 13.2 C 83 % 10.38 C
1990 15-04-2018 21:45:00 13.1 C 83 % 10.28 C
1991 15-04-2018 21:50:00 13 C 84 % 10.36 C
1992 15-04-2018 21:55:00 12.9 C 84 % 10.26 C
1993 15-04-2018 22:00:00 12.8 C 84 % 10.17 C
1994 15-04-2018 22:05:00 12.7 C 85 % 10.25 C
1995 15-04-2018 22:10:00 12.7 C 85 % 10.25 C
1996 15-04-2018 22:15:00 12.6 C 86 % 10.32 C
1997 15-04-2018 22:20:00 12.6 C 86 % 10.32 C
1998 15-04-2018 22:25:00 12.4 C 86 % 10.13 C
1999 15-04-2018 22:30:00 12.4 C 86 % 10.13 C
2000 15-04-2018 22:35:00 12.3 C 86 % 10.03 C
Sensor: Nr:Datum:Temp:Feuchte:Taupunkt:
Aussen-T/F 2001 15-04-2018 22:40:00 12.1 C 86 % 9.83 C
2002 15-04-2018 22:45:00 12.1 C 87 % 10 C
2003 15-04-2018 22:50:00 12.1 C 87 % 10 C
2004 15-04-2018 22:55:00 12 C 87 % 9.91 C
2005 15-04-2018 23:00:00 11.9 C 87 % 9.81 C
2006 15-04-2018 23:05:00 11.9 C 87 % 9.81 C
2007 15-04-2018 23:10:00 11.8 C 87 % 9.71 C
2008 15-04-2018 23:15:00 11.7 C 87 % 9.61 C
2009 15-04-2018 23:20:00 11.6 C 87 % 9.51 C
2010 15-04-2018 23:25:00 11.6 C 88 % 9.68 C
2011 15-04-2018 23:30:00 11.6 C 88 % 9.68 C
2012 15-04-2018 23:35:00 11.6 C 87 % 9.51 C
2013 15-04-2018 23:40:00 11.6 C 87 % 9.51 C
2014 15-04-2018 23:45:00 11.6 C 88 % 9.68 C
2015 15-04-2018 23:50:00 11.7 C 88 % 9.78 C
2016 15-04-2018 23:55:00 11.6 C 88 % 9.68 C

Legende:
   Min
   Max


Maximal/Minimal-Werte vom 09.04.2018 - 15.04.2018

Sensor Min Max Avg
Temp
(Aussen-T/F)
5.9 °C
14-04-2018  07:10:00
21.9 °C
12-04-2018  18:15:00
12.78 °C
Feuchte
(Aussen-T/F)
41 %
09-04-2018  16:15:00
97 %
12-04-2018  06:25:00
80.75 %
Taupunkt
(Aussen-T/F)
5.16 C
14-04-2018  07:10:00
12.91 C
15-04-2018  11:30:00
9.17 C

Die Daten stammen von einer Davis Vantage Pro 2 Wetter-Station und werden unter Linux mit der Software wview2wettercgi und aufbereitet. Alle Angaben erfolgen ohne Gewähr für ihre Vollständigkeit oder Richtigkeit.
Kontakt: Rainer Krienke krienke@uni-koblenz.de . Meine Webseiten an der Uni Koblenz oder privat.
Version: $Revision: 0.78 $